<?xml version="1.0" encoding="UTF-8" standalone="no" ?>
<gpx xmlns="http://www.topografix.com/GPX/1/1" xmlns:xsi="http://www.w3.org/2001/XMLSchema-instance" xsi:schemaLocation="http://www.topografix.com/GPX/1/1 http://www.topografix.com/GPX/1/1/gpx.xsd" version="1.1" creator="VisuGPX - https://www.visugpx.com">
  <metadata>
    <name>11605502-Hartmanwilllerkopf - Croix de Ranger</name>
  </metadata>
  <trk>
    <name><![CDATA[11605502-Hartmanwilllerkopf - Croix de Ranger]]></name>
    <trkseg>
      <trkpt lat="47.76159" lon="7.29812">
        <ele>243</ele>
        <time>2020-07-03T21:35:59Z</time>
      </trkpt>
      <trkpt lat="47.76172" lon="7.29916">
        <ele>242</ele>
        <time>2020-07-03T21:36:16Z</time>
      </trkpt>
      <trkpt lat="47.76283" lon="7.29884">
        <ele>243</ele>
        <time>2020-07-03T21:36:42Z</time>
      </trkpt>
      <trkpt lat="47.76313" lon="7.29874">
        <ele>245</ele>
        <time>2020-07-03T21:36:49Z</time>
      </trkpt>
      <trkpt lat="47.76315" lon="7.29872">
        <ele>245</ele>
        <time>2020-07-03T21:36:50Z</time>
      </trkpt>
      <trkpt lat="47.7632" lon="7.29873">
        <ele>245</ele>
        <time>2020-07-03T21:36:51Z</time>
      </trkpt>
      <trkpt lat="47.76331" lon="7.2987">
        <ele>246</ele>
        <time>2020-07-03T21:36:54Z</time>
      </trkpt>
      <trkpt lat="47.76338" lon="7.29868">
        <ele>247</ele>
        <time>2020-07-03T21:36:55Z</time>
      </trkpt>
      <trkpt lat="47.76336" lon="7.29844">
        <ele>246</ele>
        <time>2020-07-03T21:36:59Z</time>
      </trkpt>
      <trkpt lat="47.76324" lon="7.29772">
        <ele>247</ele>
        <time>2020-07-03T21:37:11Z</time>
      </trkpt>
      <trkpt lat="47.76329" lon="7.29771">
        <ele>247</ele>
        <time>2020-07-03T21:37:12Z</time>
      </trkpt>
      <trkpt lat="47.76329" lon="7.29765">
        <ele>247</ele>
        <time>2020-07-03T21:37:13Z</time>
      </trkpt>
      <trkpt lat="47.76332" lon="7.2976">
        <ele>248</ele>
        <time>2020-07-03T21:37:14Z</time>
      </trkpt>
      <trkpt lat="47.76406" lon="7.29774">
        <ele>254</ele>
        <time>2020-07-03T21:37:31Z</time>
      </trkpt>
      <trkpt lat="47.76462" lon="7.29782">
        <ele>257</ele>
        <time>2020-07-03T21:37:44Z</time>
      </trkpt>
      <trkpt lat="47.76466" lon="7.29775">
        <ele>257</ele>
        <time>2020-07-03T21:37:46Z</time>
      </trkpt>
      <trkpt lat="47.765" lon="7.29779">
        <ele>259</ele>
        <time>2020-07-03T21:37:54Z</time>
      </trkpt>
      <trkpt lat="47.76511" lon="7.29775">
        <ele>258</ele>
        <time>2020-07-03T21:37:56Z</time>
      </trkpt>
      <trkpt lat="47.76595" lon="7.29724">
        <ele>251</ele>
        <time>2020-07-03T21:38:18Z</time>
      </trkpt>
      <trkpt lat="47.76755" lon="7.29624">
        <ele>245</ele>
        <time>2020-07-03T21:38:58Z</time>
      </trkpt>
      <trkpt lat="47.76853" lon="7.29559">
        <ele>243</ele>
        <time>2020-07-03T21:39:23Z</time>
      </trkpt>
      <trkpt lat="47.76864" lon="7.2956">
        <ele>243</ele>
        <time>2020-07-03T21:39:26Z</time>
      </trkpt>
      <trkpt lat="47.76869" lon="7.29564">
        <ele>243</ele>
        <time>2020-07-03T21:39:27Z</time>
      </trkpt>
      <trkpt lat="47.76956" lon="7.29675">
        <ele>241</ele>
        <time>2020-07-03T21:39:54Z</time>
      </trkpt>
      <trkpt lat="47.76959" lon="7.29667">
        <ele>241</ele>
        <time>2020-07-03T21:39:55Z</time>
      </trkpt>
      <trkpt lat="47.76964" lon="7.2966">
        <ele>241</ele>
        <time>2020-07-03T21:39:57Z</time>
      </trkpt>
      <trkpt lat="47.77002" lon="7.29643">
        <ele>241</ele>
        <time>2020-07-03T21:40:06Z</time>
      </trkpt>
      <trkpt lat="47.77069" lon="7.29615">
        <ele>242</ele>
        <time>2020-07-03T21:40:22Z</time>
      </trkpt>
      <trkpt lat="47.77108" lon="7.29607">
        <ele>242</ele>
        <time>2020-07-03T21:40:32Z</time>
      </trkpt>
      <trkpt lat="47.77158" lon="7.29586">
        <ele>241</ele>
        <time>2020-07-03T21:40:44Z</time>
      </trkpt>
      <trkpt lat="47.77161" lon="7.29588">
        <ele>241</ele>
        <time>2020-07-03T21:40:45Z</time>
      </trkpt>
      <trkpt lat="47.7717" lon="7.2958">
        <ele>241</ele>
        <time>2020-07-03T21:40:47Z</time>
      </trkpt>
      <trkpt lat="47.7717" lon="7.29576">
        <ele>241</ele>
        <time>2020-07-03T21:40:48Z</time>
      </trkpt>
      <trkpt lat="47.77282" lon="7.29526">
        <ele>241</ele>
        <time>2020-07-03T21:41:15Z</time>
      </trkpt>
      <trkpt lat="47.77438" lon="7.2946">
        <ele>243</ele>
        <time>2020-07-03T21:41:53Z</time>
      </trkpt>
      <trkpt lat="47.77439" lon="7.29463">
        <ele>243</ele>
        <time>2020-07-03T21:41:53Z</time>
      </trkpt>
      <trkpt lat="47.77444" lon="7.29455">
        <ele>243</ele>
        <time>2020-07-03T21:41:55Z</time>
      </trkpt>
      <trkpt lat="47.77449" lon="7.29461">
        <ele>243</ele>
        <time>2020-07-03T21:41:57Z</time>
      </trkpt>
      <trkpt lat="47.77532" lon="7.29294">
        <ele>242</ele>
        <time>2020-07-03T21:42:29Z</time>
      </trkpt>
      <trkpt lat="47.77532" lon="7.29279">
        <ele>242</ele>
        <time>2020-07-03T21:42:31Z</time>
      </trkpt>
      <trkpt lat="47.77542" lon="7.29235">
        <ele>242</ele>
        <time>2020-07-03T21:42:39Z</time>
      </trkpt>
      <trkpt lat="47.77547" lon="7.29225">
        <ele>241</ele>
        <time>2020-07-03T21:42:41Z</time>
      </trkpt>
      <trkpt lat="47.77556" lon="7.29215">
        <ele>241</ele>
        <time>2020-07-03T21:42:43Z</time>
      </trkpt>
      <trkpt lat="47.77568" lon="7.29165">
        <ele>241</ele>
        <time>2020-07-03T21:42:52Z</time>
      </trkpt>
      <trkpt lat="47.77577" lon="7.29155">
        <ele>241</ele>
        <time>2020-07-03T21:42:54Z</time>
      </trkpt>
      <trkpt lat="47.77606" lon="7.29074">
        <ele>242</ele>
        <time>2020-07-03T21:43:09Z</time>
      </trkpt>
      <trkpt lat="47.77613" lon="7.29062">
        <ele>243</ele>
        <time>2020-07-03T21:43:11Z</time>
      </trkpt>
      <trkpt lat="47.77639" lon="7.28995">
        <ele>244</ele>
        <time>2020-07-03T21:43:23Z</time>
      </trkpt>
      <trkpt lat="47.7769" lon="7.2888">
        <ele>245</ele>
        <time>2020-07-03T21:43:45Z</time>
      </trkpt>
      <trkpt lat="47.77737" lon="7.28804">
        <ele>244</ele>
        <time>2020-07-03T21:44:01Z</time>
      </trkpt>
      <trkpt lat="47.77751" lon="7.28789">
        <ele>243</ele>
        <time>2020-07-03T21:44:05Z</time>
      </trkpt>
      <trkpt lat="47.77791" lon="7.28731">
        <ele>243</ele>
        <time>2020-07-03T21:44:18Z</time>
      </trkpt>
      <trkpt lat="47.77834" lon="7.28649">
        <ele>243</ele>
        <time>2020-07-03T21:44:35Z</time>
      </trkpt>
      <trkpt lat="47.7786" lon="7.28575">
        <ele>242</ele>
        <time>2020-07-03T21:44:48Z</time>
      </trkpt>
      <trkpt lat="47.77871" lon="7.2854">
        <ele>243</ele>
        <time>2020-07-03T21:44:54Z</time>
      </trkpt>
      <trkpt lat="47.77888" lon="7.28466">
        <ele>243</ele>
        <time>2020-07-03T21:45:06Z</time>
      </trkpt>
      <trkpt lat="47.779" lon="7.28406">
        <ele>244</ele>
        <time>2020-07-03T21:45:16Z</time>
      </trkpt>
      <trkpt lat="47.77967" lon="7.28115">
        <ele>246</ele>
        <time>2020-07-03T21:46:04Z</time>
      </trkpt>
      <trkpt lat="47.7797" lon="7.28095">
        <ele>246</ele>
        <time>2020-07-03T21:46:07Z</time>
      </trkpt>
      <trkpt lat="47.78034" lon="7.27816">
        <ele>247</ele>
        <time>2020-07-03T21:46:54Z</time>
      </trkpt>
      <trkpt lat="47.78048" lon="7.2776">
        <ele>248</ele>
        <time>2020-07-03T21:47:03Z</time>
      </trkpt>
      <trkpt lat="47.7812" lon="7.27529">
        <ele>250</ele>
        <time>2020-07-03T21:47:43Z</time>
      </trkpt>
      <trkpt lat="47.78216" lon="7.27276">
        <ele>250</ele>
        <time>2020-07-03T21:48:29Z</time>
      </trkpt>
      <trkpt lat="47.78316" lon="7.27026">
        <ele>251</ele>
        <time>2020-07-03T21:49:14Z</time>
      </trkpt>
      <trkpt lat="47.78363" lon="7.26877">
        <ele>252</ele>
        <time>2020-07-03T21:49:40Z</time>
      </trkpt>
      <trkpt lat="47.78395" lon="7.26771">
        <ele>252</ele>
        <time>2020-07-03T21:49:58Z</time>
      </trkpt>
      <trkpt lat="47.78407" lon="7.26724">
        <ele>252</ele>
        <time>2020-07-03T21:50:06Z</time>
      </trkpt>
      <trkpt lat="47.78419" lon="7.26651">
        <ele>253</ele>
        <time>2020-07-03T21:50:18Z</time>
      </trkpt>
      <trkpt lat="47.78425" lon="7.26641">
        <ele>253</ele>
        <time>2020-07-03T21:50:20Z</time>
      </trkpt>
      <trkpt lat="47.78447" lon="7.26494">
        <ele>254</ele>
        <time>2020-07-03T21:50:44Z</time>
      </trkpt>
      <trkpt lat="47.78458" lon="7.2632">
        <ele>254</ele>
        <time>2020-07-03T21:51:11Z</time>
      </trkpt>
      <trkpt lat="47.78462" lon="7.26288">
        <ele>254</ele>
        <time>2020-07-03T21:51:16Z</time>
      </trkpt>
      <trkpt lat="47.78466" lon="7.26275">
        <ele>254</ele>
        <time>2020-07-03T21:51:18Z</time>
      </trkpt>
      <trkpt lat="47.78469" lon="7.26271">
        <ele>254</ele>
        <time>2020-07-03T21:51:19Z</time>
      </trkpt>
      <trkpt lat="47.7847" lon="7.26241">
        <ele>254</ele>
        <time>2020-07-03T21:51:24Z</time>
      </trkpt>
      <trkpt lat="47.78474" lon="7.2623">
        <ele>254</ele>
        <time>2020-07-03T21:51:26Z</time>
      </trkpt>
      <trkpt lat="47.78469" lon="7.26219">
        <ele>255</ele>
        <time>2020-07-03T21:51:28Z</time>
      </trkpt>
      <trkpt lat="47.78466" lon="7.26214">
        <ele>255</ele>
        <time>2020-07-03T21:51:29Z</time>
      </trkpt>
      <trkpt lat="47.78466" lon="7.26211">
        <ele>255</ele>
        <time>2020-07-03T21:51:30Z</time>
      </trkpt>
      <trkpt lat="47.78466" lon="7.26207">
        <ele>255</ele>
        <time>2020-07-03T21:51:30Z</time>
      </trkpt>
      <trkpt lat="47.78466" lon="7.26204">
        <ele>255</ele>
        <time>2020-07-03T21:51:31Z</time>
      </trkpt>
      <trkpt lat="47.78466" lon="7.262">
        <ele>255</ele>
        <time>2020-07-03T21:51:31Z</time>
      </trkpt>
      <trkpt lat="47.78477" lon="7.26151">
        <ele>255</ele>
        <time>2020-07-03T21:51:39Z</time>
      </trkpt>
      <trkpt lat="47.7848" lon="7.2614">
        <ele>255</ele>
        <time>2020-07-03T21:51:41Z</time>
      </trkpt>
      <trkpt lat="47.78495" lon="7.26096">
        <ele>256</ele>
        <time>2020-07-03T21:51:49Z</time>
      </trkpt>
      <trkpt lat="47.7851" lon="7.26065">
        <ele>256</ele>
        <time>2020-07-03T21:51:55Z</time>
      </trkpt>
      <trkpt lat="47.7862" lon="7.25898">
        <ele>256</ele>
        <time>2020-07-03T21:52:32Z</time>
      </trkpt>
      <trkpt lat="47.78628" lon="7.2588">
        <ele>255</ele>
        <time>2020-07-03T21:52:35Z</time>
      </trkpt>
      <trkpt lat="47.78641" lon="7.25829">
        <ele>255</ele>
        <time>2020-07-03T21:52:44Z</time>
      </trkpt>
      <trkpt lat="47.78642" lon="7.25823">
        <ele>255</ele>
        <time>2020-07-03T21:52:45Z</time>
      </trkpt>
      <trkpt lat="47.78647" lon="7.25824">
        <ele>255</ele>
        <time>2020-07-03T21:52:46Z</time>
      </trkpt>
      <trkpt lat="47.78654" lon="7.25828">
        <ele>255</ele>
        <time>2020-07-03T21:52:48Z</time>
      </trkpt>
      <trkpt lat="47.78657" lon="7.2583">
        <ele>255</ele>
        <time>2020-07-03T21:52:48Z</time>
      </trkpt>
      <trkpt lat="47.78663" lon="7.25819">
        <ele>255</ele>
        <time>2020-07-03T21:52:51Z</time>
      </trkpt>
      <trkpt lat="47.78671" lon="7.25818">
        <ele>255</ele>
        <time>2020-07-03T21:52:52Z</time>
      </trkpt>
      <trkpt lat="47.78672" lon="7.25812">
        <ele>255</ele>
        <time>2020-07-03T21:52:53Z</time>
      </trkpt>
      <trkpt lat="47.78674" lon="7.25803">
        <ele>255</ele>
        <time>2020-07-03T21:52:55Z</time>
      </trkpt>
      <trkpt lat="47.78676" lon="7.25799">
        <ele>255</ele>
        <time>2020-07-03T21:52:56Z</time>
      </trkpt>
      <trkpt lat="47.78673" lon="7.25792">
        <ele>256</ele>
        <time>2020-07-03T21:52:57Z</time>
      </trkpt>
      <trkpt lat="47.78674" lon="7.25788">
        <ele>256</ele>
        <time>2020-07-03T21:52:58Z</time>
      </trkpt>
      <trkpt lat="47.78677" lon="7.25776">
        <ele>256</ele>
        <time>2020-07-03T21:53:00Z</time>
      </trkpt>
      <trkpt lat="47.78687" lon="7.25757">
        <ele>256</ele>
        <time>2020-07-03T21:53:03Z</time>
      </trkpt>
      <trkpt lat="47.78731" lon="7.25686">
        <ele>257</ele>
        <time>2020-07-03T21:53:19Z</time>
      </trkpt>
      <trkpt lat="47.78736" lon="7.25677">
        <ele>258</ele>
        <time>2020-07-03T21:53:20Z</time>
      </trkpt>
      <trkpt lat="47.78742" lon="7.25663">
        <ele>258</ele>
        <time>2020-07-03T21:53:23Z</time>
      </trkpt>
      <trkpt lat="47.78743" lon="7.25652">
        <ele>258</ele>
        <time>2020-07-03T21:53:25Z</time>
      </trkpt>
      <trkpt lat="47.78813" lon="7.25424">
        <ele>258</ele>
        <time>2020-07-03T21:54:04Z</time>
      </trkpt>
      <trkpt lat="47.78953" lon="7.24948">
        <ele>256</ele>
        <time>2020-07-03T21:55:26Z</time>
      </trkpt>
      <trkpt lat="47.78961" lon="7.2491">
        <ele>256</ele>
        <time>2020-07-03T21:55:32Z</time>
      </trkpt>
      <trkpt lat="47.78972" lon="7.24844">
        <ele>257</ele>
        <time>2020-07-03T21:55:43Z</time>
      </trkpt>
      <trkpt lat="47.78975" lon="7.24813">
        <ele>257</ele>
        <time>2020-07-03T21:55:48Z</time>
      </trkpt>
      <trkpt lat="47.78977" lon="7.24755">
        <ele>258</ele>
        <time>2020-07-03T21:55:57Z</time>
      </trkpt>
      <trkpt lat="47.78976" lon="7.24693">
        <ele>259</ele>
        <time>2020-07-03T21:56:06Z</time>
      </trkpt>
      <trkpt lat="47.7898" lon="7.2469">
        <ele>259</ele>
        <time>2020-07-03T21:56:07Z</time>
      </trkpt>
      <trkpt lat="47.78983" lon="7.24683">
        <ele>259</ele>
        <time>2020-07-03T21:56:09Z</time>
      </trkpt>
      <trkpt lat="47.78983" lon="7.24675">
        <ele>260</ele>
        <time>2020-07-03T21:56:10Z</time>
      </trkpt>
      <trkpt lat="47.78979" lon="7.24669">
        <ele>260</ele>
        <time>2020-07-03T21:56:11Z</time>
      </trkpt>
      <trkpt lat="47.78974" lon="7.24667">
        <ele>260</ele>
        <time>2020-07-03T21:56:12Z</time>
      </trkpt>
      <trkpt lat="47.78977" lon="7.24568">
        <ele>257</ele>
        <time>2020-07-03T21:56:28Z</time>
      </trkpt>
      <trkpt lat="47.78987" lon="7.24505">
        <ele>256</ele>
        <time>2020-07-03T21:56:38Z</time>
      </trkpt>
      <trkpt lat="47.78995" lon="7.24467">
        <ele>257</ele>
        <time>2020-07-03T21:56:44Z</time>
      </trkpt>
      <trkpt lat="47.79029" lon="7.2433">
        <ele>259</ele>
        <time>2020-07-03T21:57:07Z</time>
      </trkpt>
      <trkpt lat="47.79052" lon="7.24258">
        <ele>256</ele>
        <time>2020-07-03T21:57:20Z</time>
      </trkpt>
      <trkpt lat="47.79062" lon="7.2423">
        <ele>256</ele>
        <time>2020-07-03T21:57:25Z</time>
      </trkpt>
      <trkpt lat="47.79086" lon="7.24184">
        <ele>256</ele>
        <time>2020-07-03T21:57:34Z</time>
      </trkpt>
      <trkpt lat="47.79109" lon="7.24149">
        <ele>257</ele>
        <time>2020-07-03T21:57:42Z</time>
      </trkpt>
      <trkpt lat="47.79137" lon="7.24117">
        <ele>257</ele>
        <time>2020-07-03T21:57:50Z</time>
      </trkpt>
      <trkpt lat="47.79164" lon="7.24092">
        <ele>257</ele>
        <time>2020-07-03T21:57:57Z</time>
      </trkpt>
      <trkpt lat="47.79265" lon="7.24023">
        <ele>258</ele>
        <time>2020-07-03T21:58:23Z</time>
      </trkpt>
      <trkpt lat="47.79249" lon="7.23955">
        <ele>259</ele>
        <time>2020-07-03T21:58:35Z</time>
      </trkpt>
      <trkpt lat="47.79236" lon="7.23927">
        <ele>260</ele>
        <time>2020-07-03T21:58:40Z</time>
      </trkpt>
      <trkpt lat="47.793" lon="7.23874">
        <ele>261</ele>
        <time>2020-07-03T21:58:57Z</time>
      </trkpt>
      <trkpt lat="47.79321" lon="7.23847">
        <ele>262</ele>
        <time>2020-07-03T21:59:04Z</time>
      </trkpt>
      <trkpt lat="47.79332" lon="7.2382">
        <ele>262</ele>
        <time>2020-07-03T21:59:08Z</time>
      </trkpt>
      <trkpt lat="47.79354" lon="7.23657">
        <ele>262</ele>
        <time>2020-07-03T21:59:35Z</time>
      </trkpt>
      <trkpt lat="47.79403" lon="7.23467">
        <ele>261</ele>
        <time>2020-07-03T22:00:06Z</time>
      </trkpt>
      <trkpt lat="47.79404" lon="7.23451">
        <ele>261</ele>
        <time>2020-07-03T22:00:09Z</time>
      </trkpt>
      <trkpt lat="47.79514" lon="7.23024">
        <ele>262</ele>
        <time>2020-07-03T22:01:21Z</time>
      </trkpt>
      <trkpt lat="47.79524" lon="7.23011">
        <ele>262</ele>
        <time>2020-07-03T22:01:24Z</time>
      </trkpt>
      <trkpt lat="47.79528" lon="7.22966">
        <ele>263</ele>
        <time>2020-07-03T22:01:31Z</time>
      </trkpt>
      <trkpt lat="47.79619" lon="7.21882">
        <ele>269</ele>
        <time>2020-07-03T22:04:22Z</time>
      </trkpt>
      <trkpt lat="47.7969" lon="7.21082">
        <ele>275</ele>
        <time>2020-07-03T22:06:29Z</time>
      </trkpt>
      <trkpt lat="47.79701" lon="7.20938">
        <ele>275</ele>
        <time>2020-07-03T22:06:52Z</time>
      </trkpt>
      <trkpt lat="47.79716" lon="7.20834">
        <ele>275</ele>
        <time>2020-07-03T22:07:08Z</time>
      </trkpt>
      <trkpt lat="47.79719" lon="7.20793">
        <ele>275</ele>
        <time>2020-07-03T22:07:15Z</time>
      </trkpt>
      <trkpt lat="47.79718" lon="7.20738">
        <ele>275</ele>
        <time>2020-07-03T22:07:23Z</time>
      </trkpt>
      <trkpt lat="47.79714" lon="7.20714">
        <ele>276</ele>
        <time>2020-07-03T22:07:27Z</time>
      </trkpt>
      <trkpt lat="47.79693" lon="7.20679">
        <ele>276</ele>
        <time>2020-07-03T22:07:35Z</time>
      </trkpt>
      <trkpt lat="47.79643" lon="7.20616">
        <ele>278</ele>
        <time>2020-07-03T22:07:50Z</time>
      </trkpt>
      <trkpt lat="47.79507" lon="7.20419">
        <ele>282</ele>
        <time>2020-07-03T22:08:34Z</time>
      </trkpt>
      <trkpt lat="47.79252" lon="7.20057">
        <ele>284</ele>
        <time>2020-07-03T22:09:57Z</time>
      </trkpt>
      <trkpt lat="47.79244" lon="7.20048">
        <ele>284</ele>
        <time>2020-07-03T22:09:59Z</time>
      </trkpt>
      <trkpt lat="47.79232" lon="7.20045">
        <ele>284</ele>
        <time>2020-07-03T22:10:02Z</time>
      </trkpt>
      <trkpt lat="47.79195" lon="7.20046">
        <ele>284</ele>
        <time>2020-07-03T22:10:10Z</time>
      </trkpt>
      <trkpt lat="47.79187" lon="7.20049">
        <ele>284</ele>
        <time>2020-07-03T22:10:12Z</time>
      </trkpt>
      <trkpt lat="47.79174" lon="7.20058">
        <ele>283</ele>
        <time>2020-07-03T22:10:16Z</time>
      </trkpt>
      <trkpt lat="47.79161" lon="7.2007">
        <ele>283</ele>
        <time>2020-07-03T22:10:19Z</time>
      </trkpt>
      <trkpt lat="47.79152" lon="7.20072">
        <ele>283</ele>
        <time>2020-07-03T22:10:21Z</time>
      </trkpt>
      <trkpt lat="47.79146" lon="7.20068">
        <ele>283</ele>
        <time>2020-07-03T22:10:23Z</time>
      </trkpt>
      <trkpt lat="47.79197" lon="7.1994">
        <ele>285</ele>
        <time>2020-07-03T22:10:46Z</time>
      </trkpt>
      <trkpt lat="47.79263" lon="7.19785">
        <ele>285</ele>
        <time>2020-07-03T22:11:15Z</time>
      </trkpt>
      <trkpt lat="47.79274" lon="7.19766">
        <ele>285</ele>
        <time>2020-07-03T22:11:19Z</time>
      </trkpt>
      <trkpt lat="47.79277" lon="7.19749">
        <ele>284</ele>
        <time>2020-07-03T22:11:22Z</time>
      </trkpt>
      <trkpt lat="47.79463" lon="7.19312">
        <ele>286</ele>
        <time>2020-07-03T22:12:43Z</time>
      </trkpt>
      <trkpt lat="47.79517" lon="7.19172">
        <ele>286</ele>
        <time>2020-07-03T22:13:08Z</time>
      </trkpt>
      <trkpt lat="47.79687" lon="7.18771">
        <ele>291</ele>
        <time>2020-07-03T22:14:23Z</time>
      </trkpt>
      <trkpt lat="47.79703" lon="7.18738">
        <ele>290</ele>
        <time>2020-07-03T22:14:29Z</time>
      </trkpt>
      <trkpt lat="47.79711" lon="7.18723">
        <ele>290</ele>
        <time>2020-07-03T22:14:32Z</time>
      </trkpt>
      <trkpt lat="47.79734" lon="7.18701">
        <ele>290</ele>
        <time>2020-07-03T22:14:38Z</time>
      </trkpt>
      <trkpt lat="47.79748" lon="7.18692">
        <ele>290</ele>
        <time>2020-07-03T22:14:42Z</time>
      </trkpt>
      <trkpt lat="47.79847" lon="7.18649">
        <ele>292</ele>
        <time>2020-07-03T22:15:06Z</time>
      </trkpt>
      <trkpt lat="47.79855" lon="7.1867">
        <ele>292</ele>
        <time>2020-07-03T22:15:10Z</time>
      </trkpt>
      <trkpt lat="47.79868" lon="7.1869">
        <ele>292</ele>
        <time>2020-07-03T22:15:14Z</time>
      </trkpt>
      <trkpt lat="47.79898" lon="7.18726">
        <ele>291</ele>
        <time>2020-07-03T22:15:23Z</time>
      </trkpt>
      <trkpt lat="47.79905" lon="7.18731">
        <ele>291</ele>
        <time>2020-07-03T22:15:25Z</time>
      </trkpt>
      <trkpt lat="47.79911" lon="7.18731">
        <ele>291</ele>
        <time>2020-07-03T22:15:26Z</time>
      </trkpt>
      <trkpt lat="47.79917" lon="7.18726">
        <ele>291</ele>
        <time>2020-07-03T22:15:28Z</time>
      </trkpt>
      <trkpt lat="47.79963" lon="7.18651">
        <ele>291</ele>
        <time>2020-07-03T22:15:44Z</time>
      </trkpt>
      <trkpt lat="47.80029" lon="7.18579">
        <ele>293</ele>
        <time>2020-07-03T22:16:03Z</time>
      </trkpt>
      <trkpt lat="47.80137" lon="7.18417">
        <ele>294</ele>
        <time>2020-07-03T22:16:39Z</time>
      </trkpt>
      <trkpt lat="47.80175" lon="7.18371">
        <ele>294</ele>
        <time>2020-07-03T22:16:50Z</time>
      </trkpt>
      <trkpt lat="47.80224" lon="7.18285">
        <ele>294</ele>
        <time>2020-07-03T22:17:08Z</time>
      </trkpt>
      <trkpt lat="47.80237" lon="7.18271">
        <ele>294</ele>
        <time>2020-07-03T22:17:12Z</time>
      </trkpt>
      <trkpt lat="47.80248" lon="7.18262">
        <ele>294</ele>
        <time>2020-07-03T22:17:15Z</time>
      </trkpt>
      <trkpt lat="47.80256" lon="7.18261">
        <ele>294</ele>
        <time>2020-07-03T22:17:17Z</time>
      </trkpt>
      <trkpt lat="47.80264" lon="7.1821">
        <ele>294</ele>
        <time>2020-07-03T22:17:25Z</time>
      </trkpt>
      <trkpt lat="47.80268" lon="7.18209">
        <ele>294</ele>
        <time>2020-07-03T22:17:26Z</time>
      </trkpt>
      <trkpt lat="47.80272" lon="7.18207">
        <ele>294</ele>
        <time>2020-07-03T22:17:27Z</time>
      </trkpt>
      <trkpt lat="47.80275" lon="7.18201">
        <ele>294</ele>
        <time>2020-07-03T22:17:28Z</time>
      </trkpt>
      <trkpt lat="47.80283" lon="7.18211">
        <ele>294</ele>
        <time>2020-07-03T22:17:30Z</time>
      </trkpt>
      <trkpt lat="47.80312" lon="7.18236">
        <ele>294</ele>
        <time>2020-07-03T22:17:38Z</time>
      </trkpt>
      <trkpt lat="47.80335" lon="7.18257">
        <ele>294</ele>
        <time>2020-07-03T22:17:44Z</time>
      </trkpt>
      <trkpt lat="47.80387" lon="7.18307">
        <ele>292</ele>
        <time>2020-07-03T22:17:59Z</time>
      </trkpt>
      <trkpt lat="47.80391" lon="7.1831">
        <ele>292</ele>
        <time>2020-07-03T22:18:00Z</time>
      </trkpt>
      <trkpt lat="47.80393" lon="7.18311">
        <ele>292</ele>
        <time>2020-07-03T22:18:00Z</time>
      </trkpt>
      <trkpt lat="47.80396" lon="7.1831">
        <ele>292</ele>
        <time>2020-07-03T22:18:01Z</time>
      </trkpt>
      <trkpt lat="47.80462" lon="7.18281">
        <ele>291</ele>
        <time>2020-07-03T22:18:17Z</time>
      </trkpt>
      <trkpt lat="47.80461" lon="7.18278">
        <ele>291</ele>
        <time>2020-07-03T22:18:18Z</time>
      </trkpt>
      <trkpt lat="47.80464" lon="7.1827">
        <ele>291</ele>
        <time>2020-07-03T22:18:19Z</time>
      </trkpt>
      <trkpt lat="47.80466" lon="7.18269">
        <ele>291</ele>
        <time>2020-07-03T22:18:20Z</time>
      </trkpt>
      <trkpt lat="47.80468" lon="7.18268">
        <ele>291</ele>
        <time>2020-07-03T22:18:20Z</time>
      </trkpt>
      <trkpt lat="47.80474" lon="7.18272">
        <ele>291</ele>
        <time>2020-07-03T22:18:22Z</time>
      </trkpt>
      <trkpt lat="47.80475" lon="7.18275">
        <ele>291</ele>
        <time>2020-07-03T22:18:22Z</time>
      </trkpt>
      <trkpt lat="47.80536" lon="7.18251">
        <ele>290</ele>
        <time>2020-07-03T22:18:37Z</time>
      </trkpt>
      <trkpt lat="47.80563" lon="7.1824">
        <ele>290</ele>
        <time>2020-07-03T22:18:44Z</time>
      </trkpt>
      <trkpt lat="47.80567" lon="7.18238">
        <ele>290</ele>
        <time>2020-07-03T22:18:45Z</time>
      </trkpt>
      <trkpt lat="47.806" lon="7.18223">
        <ele>290</ele>
        <time>2020-07-03T22:18:53Z</time>
      </trkpt>
      <trkpt lat="47.80713" lon="7.18175">
        <ele>289</ele>
        <time>2020-07-03T22:19:20Z</time>
      </trkpt>
      <trkpt lat="47.80721" lon="7.18173">
        <ele>289</ele>
        <time>2020-07-03T22:19:22Z</time>
      </trkpt>
      <trkpt lat="47.80728" lon="7.18175">
        <ele>289</ele>
        <time>2020-07-03T22:19:24Z</time>
      </trkpt>
      <trkpt lat="47.80747" lon="7.18194">
        <ele>289</ele>
        <time>2020-07-03T22:19:29Z</time>
      </trkpt>
      <trkpt lat="47.80755" lon="7.18197">
        <ele>289</ele>
        <time>2020-07-03T22:19:31Z</time>
      </trkpt>
      <trkpt lat="47.80764" lon="7.18197">
        <ele>290</ele>
        <time>2020-07-03T22:19:33Z</time>
      </trkpt>
      <trkpt lat="47.80792" lon="7.18192">
        <ele>291</ele>
        <time>2020-07-03T22:19:40Z</time>
      </trkpt>
      <trkpt lat="47.80815" lon="7.18188">
        <ele>292</ele>
        <time>2020-07-03T22:19:45Z</time>
      </trkpt>
      <trkpt lat="47.80842" lon="7.18184">
        <ele>293</ele>
        <time>2020-07-03T22:19:51Z</time>
      </trkpt>
      <trkpt lat="47.80854" lon="7.18183">
        <ele>293</ele>
        <time>2020-07-03T22:19:54Z</time>
      </trkpt>
      <trkpt lat="47.80873" lon="7.1818">
        <ele>293</ele>
        <time>2020-07-03T22:19:59Z</time>
      </trkpt>
      <trkpt lat="47.80881" lon="7.18177">
        <ele>293</ele>
        <time>2020-07-03T22:20:00Z</time>
      </trkpt>
      <trkpt lat="47.80889" lon="7.18173">
        <ele>293</ele>
        <time>2020-07-03T22:20:02Z</time>
      </trkpt>
      <trkpt lat="47.80965" lon="7.18166">
        <ele>293</ele>
        <time>2020-07-03T22:20:20Z</time>
      </trkpt>
      <trkpt lat="47.8102" lon="7.18157">
        <ele>293</ele>
        <time>2020-07-03T22:20:33Z</time>
      </trkpt>
      <trkpt lat="47.81094" lon="7.18147">
        <ele>292</ele>
        <time>2020-07-03T22:20:50Z</time>
      </trkpt>
      <trkpt lat="47.81102" lon="7.18146">
        <ele>292</ele>
        <time>2020-07-03T22:20:52Z</time>
      </trkpt>
      <trkpt lat="47.81132" lon="7.18133">
        <ele>292</ele>
        <time>2020-07-03T22:21:00Z</time>
      </trkpt>
      <trkpt lat="47.81139" lon="7.1813">
        <ele>292</ele>
        <time>2020-07-03T22:21:01Z</time>
      </trkpt>
      <trkpt lat="47.81181" lon="7.18112">
        <ele>292</ele>
        <time>2020-07-03T22:21:12Z</time>
      </trkpt>
      <trkpt lat="47.81217" lon="7.18095">
        <ele>292</ele>
        <time>2020-07-03T22:21:20Z</time>
      </trkpt>
      <trkpt lat="47.8127" lon="7.18065">
        <ele>293</ele>
        <time>2020-07-03T22:21:34Z</time>
      </trkpt>
      <trkpt lat="47.81278" lon="7.18063">
        <ele>293</ele>
        <time>2020-07-03T22:21:36Z</time>
      </trkpt>
      <trkpt lat="47.81288" lon="7.18059">
        <ele>293</ele>
        <time>2020-07-03T22:21:38Z</time>
      </trkpt>
      <trkpt lat="47.81294" lon="7.18053">
        <ele>293</ele>
        <time>2020-07-03T22:21:40Z</time>
      </trkpt>
      <trkpt lat="47.81332" lon="7.18027">
        <ele>292</ele>
        <time>2020-07-03T22:21:49Z</time>
      </trkpt>
      <trkpt lat="47.81346" lon="7.18011">
        <ele>292</ele>
        <time>2020-07-03T22:21:54Z</time>
      </trkpt>
      <trkpt lat="47.81373" lon="7.17979">
        <ele>292</ele>
        <time>2020-07-03T22:22:02Z</time>
      </trkpt>
      <trkpt lat="47.81408" lon="7.17936">
        <ele>293</ele>
        <time>2020-07-03T22:22:12Z</time>
      </trkpt>
      <trkpt lat="47.81412" lon="7.17935">
        <ele>293</ele>
        <time>2020-07-03T22:22:13Z</time>
      </trkpt>
      <trkpt lat="47.81413" lon="7.17928">
        <ele>293</ele>
        <time>2020-07-03T22:22:14Z</time>
      </trkpt>
      <trkpt lat="47.81412" lon="7.1792">
        <ele>293</ele>
        <time>2020-07-03T22:22:16Z</time>
      </trkpt>
      <trkpt lat="47.81421" lon="7.17916">
        <ele>293</ele>
        <time>2020-07-03T22:22:18Z</time>
      </trkpt>
      <trkpt lat="47.81435" lon="7.17906">
        <ele>293</ele>
        <time>2020-07-03T22:22:21Z</time>
      </trkpt>
      <trkpt lat="47.81452" lon="7.1789">
        <ele>293</ele>
        <time>2020-07-03T22:22:26Z</time>
      </trkpt>
      <trkpt lat="47.8146" lon="7.17881">
        <ele>294</ele>
        <time>2020-07-03T22:22:28Z</time>
      </trkpt>
      <trkpt lat="47.81469" lon="7.17861">
        <ele>294</ele>
        <time>2020-07-03T22:22:32Z</time>
      </trkpt>
      <trkpt lat="47.81475" lon="7.17856">
        <ele>294</ele>
        <time>2020-07-03T22:22:34Z</time>
      </trkpt>
      <trkpt lat="47.81479" lon="7.17857">
        <ele>294</ele>
        <time>2020-07-03T22:22:35Z</time>
      </trkpt>
      <trkpt lat="47.81486" lon="7.17855">
        <ele>294</ele>
        <time>2020-07-03T22:22:36Z</time>
      </trkpt>
      <trkpt lat="47.81489" lon="7.1787">
        <ele>294</ele>
        <time>2020-07-03T22:22:39Z</time>
      </trkpt>
      <trkpt lat="47.81496" lon="7.1799">
        <ele>291</ele>
        <time>2020-07-03T22:22:58Z</time>
      </trkpt>
      <trkpt lat="47.81505" lon="7.17989">
        <ele>291</ele>
        <time>2020-07-03T22:23:00Z</time>
      </trkpt>
      <trkpt lat="47.81538" lon="7.17995">
        <ele>292</ele>
        <time>2020-07-03T22:23:08Z</time>
      </trkpt>
      <trkpt lat="47.81547" lon="7.18">
        <ele>293</ele>
        <time>2020-07-03T22:23:10Z</time>
      </trkpt>
      <trkpt lat="47.81573" lon="7.18005">
        <ele>294</ele>
        <time>2020-07-03T22:23:16Z</time>
      </trkpt>
      <trkpt lat="47.81633" lon="7.18039">
        <ele>296</ele>
        <time>2020-07-03T22:23:31Z</time>
      </trkpt>
      <trkpt lat="47.81639" lon="7.18045">
        <ele>296</ele>
        <time>2020-07-03T22:23:33Z</time>
      </trkpt>
      <trkpt lat="47.81682" lon="7.18056">
        <ele>298</ele>
        <time>2020-07-03T22:23:43Z</time>
      </trkpt>
      <trkpt lat="47.81686" lon="7.18051">
        <ele>298</ele>
        <time>2020-07-03T22:23:44Z</time>
      </trkpt>
      <trkpt lat="47.81706" lon="7.18092">
        <ele>298</ele>
        <time>2020-07-03T22:23:52Z</time>
      </trkpt>
      <trkpt lat="47.81786" lon="7.18012">
        <ele>302</ele>
        <time>2020-07-03T22:24:14Z</time>
      </trkpt>
      <trkpt lat="47.81806" lon="7.18049">
        <ele>301</ele>
        <time>2020-07-03T22:24:22Z</time>
      </trkpt>
      <trkpt lat="47.81861" lon="7.17987">
        <ele>303</ele>
        <time>2020-07-03T22:24:38Z</time>
      </trkpt>
      <trkpt lat="47.81888" lon="7.17963">
        <ele>304</ele>
        <time>2020-07-03T22:24:45Z</time>
      </trkpt>
      <trkpt lat="47.81927" lon="7.17921">
        <ele>305</ele>
        <time>2020-07-03T22:24:57Z</time>
      </trkpt>
      <trkpt lat="47.81963" lon="7.17986">
        <ele>304</ele>
        <time>2020-07-03T22:25:10Z</time>
      </trkpt>
      <trkpt lat="47.81982" lon="7.18009">
        <ele>304</ele>
        <time>2020-07-03T22:25:16Z</time>
      </trkpt>
      <trkpt lat="47.82013" lon="7.1804">
        <ele>305</ele>
        <time>2020-07-03T22:25:24Z</time>
      </trkpt>
      <trkpt lat="47.82016" lon="7.18038">
        <ele>305</ele>
        <time>2020-07-03T22:25:25Z</time>
      </trkpt>
      <trkpt lat="47.82029" lon="7.18037">
        <ele>305</ele>
        <time>2020-07-03T22:25:28Z</time>
      </trkpt>
      <trkpt lat="47.82031" lon="7.18044">
        <ele>305</ele>
        <time>2020-07-03T22:25:29Z</time>
      </trkpt>
      <trkpt lat="47.82034" lon="7.18048">
        <ele>305</ele>
        <time>2020-07-03T22:25:30Z</time>
      </trkpt>
      <trkpt lat="47.82066" lon="7.18071">
        <ele>305</ele>
        <time>2020-07-03T22:25:39Z</time>
      </trkpt>
      <trkpt lat="47.82112" lon="7.18091">
        <ele>304</ele>
        <time>2020-07-03T22:25:50Z</time>
      </trkpt>
      <trkpt lat="47.82301" lon="7.18155">
        <ele>309</ele>
        <time>2020-07-03T22:26:35Z</time>
      </trkpt>
      <trkpt lat="47.82344" lon="7.18163">
        <ele>311</ele>
        <time>2020-07-03T22:26:45Z</time>
      </trkpt>
      <trkpt lat="47.82404" lon="7.18179">
        <ele>311</ele>
        <time>2020-07-03T22:26:59Z</time>
      </trkpt>
      <trkpt lat="47.82416" lon="7.18177">
        <ele>312</ele>
        <time>2020-07-03T22:27:02Z</time>
      </trkpt>
      <trkpt lat="47.8244" lon="7.18155">
        <ele>313</ele>
        <time>2020-07-03T22:27:09Z</time>
      </trkpt>
      <trkpt lat="47.82469" lon="7.18144">
        <ele>314</ele>
        <time>2020-07-03T22:27:16Z</time>
      </trkpt>
      <trkpt lat="47.8249" lon="7.18132">
        <ele>315</ele>
        <time>2020-07-03T22:27:21Z</time>
      </trkpt>
      <trkpt lat="47.82513" lon="7.18117">
        <ele>317</ele>
        <time>2020-07-03T22:27:27Z</time>
      </trkpt>
      <trkpt lat="47.82545" lon="7.18098">
        <ele>318</ele>
        <time>2020-07-03T22:27:35Z</time>
      </trkpt>
      <trkpt lat="47.82562" lon="7.1809">
        <ele>319</ele>
        <time>2020-07-03T22:27:39Z</time>
      </trkpt>
      <trkpt lat="47.82579" lon="7.18084">
        <ele>320</ele>
        <time>2020-07-03T22:27:43Z</time>
      </trkpt>
      <trkpt lat="47.82607" lon="7.18083">
        <ele>321</ele>
        <time>2020-07-03T22:27:50Z</time>
      </trkpt>
      <trkpt lat="47.82626" lon="7.18087">
        <ele>322</ele>
        <time>2020-07-03T22:27:54Z</time>
      </trkpt>
      <trkpt lat="47.82716" lon="7.18126">
        <ele>324</ele>
        <time>2020-07-03T22:28:16Z</time>
      </trkpt>
      <trkpt lat="47.8274" lon="7.18131">
        <ele>325</ele>
        <time>2020-07-03T22:28:22Z</time>
      </trkpt>
      <trkpt lat="47.82759" lon="7.18129">
        <ele>325</ele>
        <time>2020-07-03T22:28:26Z</time>
      </trkpt>
      <trkpt lat="47.8277" lon="7.18123">
        <ele>326</ele>
        <time>2020-07-03T22:28:29Z</time>
      </trkpt>
      <trkpt lat="47.82779" lon="7.18117">
        <ele>326</ele>
        <time>2020-07-03T22:28:31Z</time>
      </trkpt>
      <trkpt lat="47.82821" lon="7.18091">
        <ele>329</ele>
        <time>2020-07-03T22:28:42Z</time>
      </trkpt>
      <trkpt lat="47.82866" lon="7.18074">
        <ele>329</ele>
        <time>2020-07-03T22:28:53Z</time>
      </trkpt>
      <trkpt lat="47.82897" lon="7.18047">
        <ele>330</ele>
        <time>2020-07-03T22:29:01Z</time>
      </trkpt>
      <trkpt lat="47.8294" lon="7.18025">
        <ele>330</ele>
        <time>2020-07-03T22:29:12Z</time>
      </trkpt>
      <trkpt lat="47.82956" lon="7.18011">
        <ele>330</ele>
        <time>2020-07-03T22:29:16Z</time>
      </trkpt>
      <trkpt lat="47.82966" lon="7.18001">
        <ele>330</ele>
        <time>2020-07-03T22:29:19Z</time>
      </trkpt>
      <trkpt lat="47.82984" lon="7.17978">
        <ele>330</ele>
        <time>2020-07-03T22:29:24Z</time>
      </trkpt>
      <trkpt lat="47.83009" lon="7.17939">
        <ele>330</ele>
        <time>2020-07-03T22:29:33Z</time>
      </trkpt>
      <trkpt lat="47.83033" lon="7.17923">
        <ele>330</ele>
        <time>2020-07-03T22:29:39Z</time>
      </trkpt>
      <trkpt lat="47.83081" lon="7.17907">
        <ele>331</ele>
        <time>2020-07-03T22:29:50Z</time>
      </trkpt>
      <trkpt lat="47.83131" lon="7.17896">
        <ele>332</ele>
        <time>2020-07-03T22:30:02Z</time>
      </trkpt>
      <trkpt lat="47.83142" lon="7.17896">
        <ele>333</ele>
        <time>2020-07-03T22:30:05Z</time>
      </trkpt>
      <trkpt lat="47.83216" lon="7.1784">
        <ele>337</ele>
        <time>2020-07-03T22:30:24Z</time>
      </trkpt>
      <trkpt lat="47.83234" lon="7.17839">
        <ele>339</ele>
        <time>2020-07-03T22:30:28Z</time>
      </trkpt>
      <trkpt lat="47.8327" lon="7.17854">
        <ele>340</ele>
        <time>2020-07-03T22:30:37Z</time>
      </trkpt>
      <trkpt lat="47.83297" lon="7.17874">
        <ele>339</ele>
        <time>2020-07-03T22:30:44Z</time>
      </trkpt>
      <trkpt lat="47.8331" lon="7.17875">
        <ele>340</ele>
        <time>2020-07-03T22:30:47Z</time>
      </trkpt>
      <trkpt lat="47.8334" lon="7.17866">
        <ele>341</ele>
        <time>2020-07-03T22:30:54Z</time>
      </trkpt>
      <trkpt lat="47.83352" lon="7.1787">
        <ele>341</ele>
        <time>2020-07-03T22:30:57Z</time>
      </trkpt>
      <trkpt lat="47.83358" lon="7.1787">
        <ele>341</ele>
        <time>2020-07-03T22:30:59Z</time>
      </trkpt>
      <trkpt lat="47.83391" lon="7.17844">
        <ele>344</ele>
        <time>2020-07-03T22:31:07Z</time>
      </trkpt>
      <trkpt lat="47.83405" lon="7.17832">
        <ele>345</ele>
        <time>2020-07-03T22:31:11Z</time>
      </trkpt>
      <trkpt lat="47.83429" lon="7.17806">
        <ele>347</ele>
        <time>2020-07-03T22:31:18Z</time>
      </trkpt>
      <trkpt lat="47.83444" lon="7.17785">
        <ele>348</ele>
        <time>2020-07-03T22:31:23Z</time>
      </trkpt>
      <trkpt lat="47.83473" lon="7.17745">
        <ele>351</ele>
        <time>2020-07-03T22:31:32Z</time>
      </trkpt>
      <trkpt lat="47.83477" lon="7.17742">
        <ele>351</ele>
        <time>2020-07-03T22:31:33Z</time>
      </trkpt>
      <trkpt lat="47.83478" lon="7.17734">
        <ele>352</ele>
        <time>2020-07-03T22:31:34Z</time>
      </trkpt>
      <trkpt lat="47.8348" lon="7.17726">
        <ele>353</ele>
        <time>2020-07-03T22:31:36Z</time>
      </trkpt>
      <trkpt lat="47.83484" lon="7.17719">
        <ele>353</ele>
        <time>2020-07-03T22:31:37Z</time>
      </trkpt>
      <trkpt lat="47.83494" lon="7.17709">
        <ele>354</ele>
        <time>2020-07-03T22:31:40Z</time>
      </trkpt>
      <trkpt lat="47.83509" lon="7.17692">
        <ele>355</ele>
        <time>2020-07-03T22:31:44Z</time>
      </trkpt>
      <trkpt lat="47.83546" lon="7.17651">
        <ele>358</ele>
        <time>2020-07-03T22:31:55Z</time>
      </trkpt>
      <trkpt lat="47.83549" lon="7.1765">
        <ele>358</ele>
        <time>2020-07-03T22:31:56Z</time>
      </trkpt>
      <trkpt lat="47.83554" lon="7.1765">
        <ele>358</ele>
        <time>2020-07-03T22:31:57Z</time>
      </trkpt>
      <trkpt lat="47.83587" lon="7.17693">
        <ele>357</ele>
        <time>2020-07-03T22:32:07Z</time>
      </trkpt>
      <trkpt lat="47.83628" lon="7.17604">
        <ele>363</ele>
        <time>2020-07-03T22:32:24Z</time>
      </trkpt>
      <trkpt lat="47.83642" lon="7.17579">
        <ele>364</ele>
        <time>2020-07-03T22:32:29Z</time>
      </trkpt>
      <trkpt lat="47.83685" lon="7.17523">
        <ele>368</ele>
        <time>2020-07-03T22:32:43Z</time>
      </trkpt>
      <trkpt lat="47.83723" lon="7.17468">
        <ele>374</ele>
        <time>2020-07-03T22:32:55Z</time>
      </trkpt>
      <trkpt lat="47.83741" lon="7.17437">
        <ele>376</ele>
        <time>2020-07-03T22:33:01Z</time>
      </trkpt>
      <trkpt lat="47.83766" lon="7.17403">
        <ele>380</ele>
        <time>2020-07-03T22:33:09Z</time>
      </trkpt>
      <trkpt lat="47.83775" lon="7.17386">
        <ele>382</ele>
        <time>2020-07-03T22:33:13Z</time>
      </trkpt>
      <trkpt lat="47.83783" lon="7.17367">
        <ele>384</ele>
        <time>2020-07-03T22:33:16Z</time>
      </trkpt>
      <trkpt lat="47.83789" lon="7.17346">
        <ele>386</ele>
        <time>2020-07-03T22:33:20Z</time>
      </trkpt>
      <trkpt lat="47.83795" lon="7.1732">
        <ele>388</ele>
        <time>2020-07-03T22:33:24Z</time>
      </trkpt>
      <trkpt lat="47.83798" lon="7.1729">
        <ele>389</ele>
        <time>2020-07-03T22:33:29Z</time>
      </trkpt>
      <trkpt lat="47.83802" lon="7.17287">
        <ele>390</ele>
        <time>2020-07-03T22:33:30Z</time>
      </trkpt>
      <trkpt lat="47.83812" lon="7.17256">
        <ele>393</ele>
        <time>2020-07-03T22:33:35Z</time>
      </trkpt>
      <trkpt lat="47.83822" lon="7.17235">
        <ele>395</ele>
        <time>2020-07-03T22:33:39Z</time>
      </trkpt>
      <trkpt lat="47.83833" lon="7.17233">
        <ele>397</ele>
        <time>2020-07-03T22:33:42Z</time>
      </trkpt>
      <trkpt lat="47.83832" lon="7.1724">
        <ele>397</ele>
        <time>2020-07-03T22:33:43Z</time>
      </trkpt>
      <trkpt lat="47.83846" lon="7.17232">
        <ele>401</ele>
        <time>2020-07-03T22:33:47Z</time>
      </trkpt>
      <trkpt lat="47.83854" lon="7.17232">
        <ele>403</ele>
        <time>2020-07-03T22:33:48Z</time>
      </trkpt>
      <trkpt lat="47.8388" lon="7.17211">
        <ele>410</ele>
        <time>2020-07-03T22:33:55Z</time>
      </trkpt>
      <trkpt lat="47.83889" lon="7.17207">
        <ele>412</ele>
        <time>2020-07-03T22:33:58Z</time>
      </trkpt>
      <trkpt lat="47.83907" lon="7.1719">
        <ele>417</ele>
        <time>2020-07-03T22:34:03Z</time>
      </trkpt>
      <trkpt lat="47.83923" lon="7.17185">
        <ele>421</ele>
        <time>2020-07-03T22:34:06Z</time>
      </trkpt>
      <trkpt lat="47.83976" lon="7.17187">
        <ele>433</ele>
        <time>2020-07-03T22:34:19Z</time>
      </trkpt>
      <trkpt lat="47.83993" lon="7.17183">
        <ele>436</ele>
        <time>2020-07-03T22:34:23Z</time>
      </trkpt>
      <trkpt lat="47.84009" lon="7.17173">
        <ele>440</ele>
        <time>2020-07-03T22:34:27Z</time>
      </trkpt>
      <trkpt lat="47.84116" lon="7.17087">
        <ele>461</ele>
        <time>2020-07-03T22:34:55Z</time>
      </trkpt>
      <trkpt lat="47.84126" lon="7.17087">
        <ele>464</ele>
        <time>2020-07-03T22:34:58Z</time>
      </trkpt>
      <trkpt lat="47.84136" lon="7.17083">
        <ele>466</ele>
        <time>2020-07-03T22:35:00Z</time>
      </trkpt>
      <trkpt lat="47.84193" lon="7.17046">
        <ele>478</ele>
        <time>2020-07-03T22:35:14Z</time>
      </trkpt>
      <trkpt lat="47.84208" lon="7.17032">
        <ele>481</ele>
        <time>2020-07-03T22:35:19Z</time>
      </trkpt>
      <trkpt lat="47.84223" lon="7.17022">
        <ele>484</ele>
        <time>2020-07-03T22:35:22Z</time>
      </trkpt>
      <trkpt lat="47.84294" lon="7.16965">
        <ele>496</ele>
        <time>2020-07-03T22:35:41Z</time>
      </trkpt>
      <trkpt lat="47.84337" lon="7.16936">
        <ele>502</ele>
        <time>2020-07-03T22:35:52Z</time>
      </trkpt>
      <trkpt lat="47.84407" lon="7.16882">
        <ele>516</ele>
        <time>2020-07-03T22:36:11Z</time>
      </trkpt>
      <trkpt lat="47.84484" lon="7.16831">
        <ele>533</ele>
        <time>2020-07-03T22:36:30Z</time>
      </trkpt>
      <trkpt lat="47.84504" lon="7.1682">
        <ele>537</ele>
        <time>2020-07-03T22:36:35Z</time>
      </trkpt>
      <trkpt lat="47.84542" lon="7.16807">
        <ele>540</ele>
        <time>2020-07-03T22:36:44Z</time>
      </trkpt>
      <trkpt lat="47.84571" lon="7.16805">
        <ele>544</ele>
        <time>2020-07-03T22:36:51Z</time>
      </trkpt>
      <trkpt lat="47.8459" lon="7.16814">
        <ele>546</ele>
        <time>2020-07-03T22:36:56Z</time>
      </trkpt>
      <trkpt lat="47.84614" lon="7.16816">
        <ele>547</ele>
        <time>2020-07-03T22:37:02Z</time>
      </trkpt>
      <trkpt lat="47.84637" lon="7.16804">
        <ele>548</ele>
        <time>2020-07-03T22:37:07Z</time>
      </trkpt>
      <trkpt lat="47.84666" lon="7.16856">
        <ele>547</ele>
        <time>2020-07-03T22:37:18Z</time>
      </trkpt>
      <trkpt lat="47.84684" lon="7.16933">
        <ele>545</ele>
        <time>2020-07-03T22:37:31Z</time>
      </trkpt>
      <trkpt lat="47.84693" lon="7.16927">
        <ele>545</ele>
        <time>2020-07-03T22:37:33Z</time>
      </trkpt>
      <trkpt lat="47.84699" lon="7.16917">
        <ele>545</ele>
        <time>2020-07-03T22:37:35Z</time>
      </trkpt>
      <trkpt lat="47.84724" lon="7.16926">
        <ele>544</ele>
        <time>2020-07-03T22:37:41Z</time>
      </trkpt>
      <trkpt lat="47.84756" lon="7.16925">
        <ele>542</ele>
        <time>2020-07-03T22:37:48Z</time>
      </trkpt>
      <trkpt lat="47.84809" lon="7.16909">
        <ele>542</ele>
        <time>2020-07-03T22:38:01Z</time>
      </trkpt>
      <trkpt lat="47.84845" lon="7.1689">
        <ele>546</ele>
        <time>2020-07-03T22:38:10Z</time>
      </trkpt>
      <trkpt lat="47.84892" lon="7.16885">
        <ele>546</ele>
        <time>2020-07-03T22:38:21Z</time>
      </trkpt>
      <trkpt lat="47.84956" lon="7.16887">
        <ele>548</ele>
        <time>2020-07-03T22:38:36Z</time>
      </trkpt>
      <trkpt lat="47.85003" lon="7.16884">
        <ele>552</ele>
        <time>2020-07-03T22:38:47Z</time>
      </trkpt>
      <trkpt lat="47.85014" lon="7.1689">
        <ele>553</ele>
        <time>2020-07-03T22:38:50Z</time>
      </trkpt>
      <trkpt lat="47.85019" lon="7.16908">
        <ele>552</ele>
        <time>2020-07-03T22:38:53Z</time>
      </trkpt>
      <trkpt lat="47.85023" lon="7.16949">
        <ele>550</ele>
        <time>2020-07-03T22:38:59Z</time>
      </trkpt>
      <trkpt lat="47.85006" lon="7.1701">
        <ele>544</ele>
        <time>2020-07-03T22:39:10Z</time>
      </trkpt>
      <trkpt lat="47.84985" lon="7.17152">
        <ele>532</ele>
        <time>2020-07-03T22:39:32Z</time>
      </trkpt>
      <trkpt lat="47.84973" lon="7.17195">
        <ele>526</ele>
        <time>2020-07-03T22:39:40Z</time>
      </trkpt>
      <trkpt lat="47.85005" lon="7.17251">
        <ele>531</ele>
        <time>2020-07-03T22:39:51Z</time>
      </trkpt>
      <trkpt lat="47.85036" lon="7.17317">
        <ele>540</ele>
        <time>2020-07-03T22:40:04Z</time>
      </trkpt>
      <trkpt lat="47.85095" lon="7.17433">
        <ele>562</ele>
        <time>2020-07-03T22:40:27Z</time>
      </trkpt>
      <trkpt lat="47.85149" lon="7.17534">
        <ele>579</ele>
        <time>2020-07-03T22:40:47Z</time>
      </trkpt>
      <trkpt lat="47.85158" lon="7.17541">
        <ele>581</ele>
        <time>2020-07-03T22:40:49Z</time>
      </trkpt>
      <trkpt lat="47.85166" lon="7.17538">
        <ele>583</ele>
        <time>2020-07-03T22:40:51Z</time>
      </trkpt>
      <trkpt lat="47.85173" lon="7.17575">
        <ele>582</ele>
        <time>2020-07-03T22:40:57Z</time>
      </trkpt>
      <trkpt lat="47.85187" lon="7.17603">
        <ele>582</ele>
        <time>2020-07-03T22:41:03Z</time>
      </trkpt>
      <trkpt lat="47.85206" lon="7.17622">
        <ele>580</ele>
        <time>2020-07-03T22:41:08Z</time>
      </trkpt>
      <trkpt lat="47.85218" lon="7.17653">
        <ele>577</ele>
        <time>2020-07-03T22:41:14Z</time>
      </trkpt>
      <trkpt lat="47.85221" lon="7.17692">
        <ele>571</ele>
        <time>2020-07-03T22:41:20Z</time>
      </trkpt>
      <trkpt lat="47.85217" lon="7.17712">
        <ele>568</ele>
        <time>2020-07-03T22:41:23Z</time>
      </trkpt>
      <trkpt lat="47.85237" lon="7.17699">
        <ele>568</ele>
        <time>2020-07-03T22:41:28Z</time>
      </trkpt>
      <trkpt lat="47.85262" lon="7.17639">
        <ele>574</ele>
        <time>2020-07-03T22:41:39Z</time>
      </trkpt>
      <trkpt lat="47.8527" lon="7.17613">
        <ele>577</ele>
        <time>2020-07-03T22:41:44Z</time>
      </trkpt>
      <trkpt lat="47.85301" lon="7.1753">
        <ele>587</ele>
        <time>2020-07-03T22:41:59Z</time>
      </trkpt>
      <trkpt lat="47.85318" lon="7.17508">
        <ele>590</ele>
        <time>2020-07-03T22:42:04Z</time>
      </trkpt>
      <trkpt lat="47.85383" lon="7.17459">
        <ele>600</ele>
        <time>2020-07-03T22:42:21Z</time>
      </trkpt>
      <trkpt lat="47.85415" lon="7.17443">
        <ele>605</ele>
        <time>2020-07-03T22:42:29Z</time>
      </trkpt>
      <trkpt lat="47.85468" lon="7.17422">
        <ele>616</ele>
        <time>2020-07-03T22:42:42Z</time>
      </trkpt>
      <trkpt lat="47.85496" lon="7.17422">
        <ele>618</ele>
        <time>2020-07-03T22:42:48Z</time>
      </trkpt>
      <trkpt lat="47.85513" lon="7.17429">
        <ele>620</ele>
        <time>2020-07-03T22:42:52Z</time>
      </trkpt>
      <trkpt lat="47.85544" lon="7.17452">
        <ele>622</ele>
        <time>2020-07-03T22:43:00Z</time>
      </trkpt>
      <trkpt lat="47.85554" lon="7.17467">
        <ele>621</ele>
        <time>2020-07-03T22:43:04Z</time>
      </trkpt>
      <trkpt lat="47.85579" lon="7.17531">
        <ele>618</ele>
        <time>2020-07-03T22:43:15Z</time>
      </trkpt>
      <trkpt lat="47.85603" lon="7.17581">
        <ele>622</ele>
        <time>2020-07-03T22:43:25Z</time>
      </trkpt>
      <trkpt lat="47.85644" lon="7.17657">
        <ele>625</ele>
        <time>2020-07-03T22:43:40Z</time>
      </trkpt>
      <trkpt lat="47.85669" lon="7.1769">
        <ele>627</ele>
        <time>2020-07-03T22:43:48Z</time>
      </trkpt>
      <trkpt lat="47.85704" lon="7.17717">
        <ele>628</ele>
        <time>2020-07-03T22:43:57Z</time>
      </trkpt>
      <trkpt lat="47.85728" lon="7.1772">
        <ele>634</ele>
        <time>2020-07-03T22:44:03Z</time>
      </trkpt>
      <trkpt lat="47.8574" lon="7.17719">
        <ele>637</ele>
        <time>2020-07-03T22:44:06Z</time>
      </trkpt>
      <trkpt lat="47.85757" lon="7.17711">
        <ele>642</ele>
        <time>2020-07-03T22:44:10Z</time>
      </trkpt>
      <trkpt lat="47.85779" lon="7.17696">
        <ele>649</ele>
        <time>2020-07-03T22:44:15Z</time>
      </trkpt>
      <trkpt lat="47.85791" lon="7.1769">
        <ele>652</ele>
        <time>2020-07-03T22:44:18Z</time>
      </trkpt>
      <trkpt lat="47.85843" lon="7.17692">
        <ele>656</ele>
        <time>2020-07-03T22:44:30Z</time>
      </trkpt>
      <trkpt lat="47.85843" lon="7.17669">
        <ele>664</ele>
        <time>2020-07-03T22:44:34Z</time>
      </trkpt>
      <trkpt lat="47.8584" lon="7.17664">
        <ele>666</ele>
        <time>2020-07-03T22:44:35Z</time>
      </trkpt>
      <trkpt lat="47.8585" lon="7.17658">
        <ele>668</ele>
        <time>2020-07-03T22:44:38Z</time>
      </trkpt>
      <trkpt lat="47.85825" lon="7.17651">
        <ele>669</ele>
        <time>2020-07-03T22:44:44Z</time>
      </trkpt>
      <trkpt lat="47.85825" lon="7.17643">
        <ele>672</ele>
        <time>2020-07-03T22:44:45Z</time>
      </trkpt>
      <trkpt lat="47.85827" lon="7.17642">
        <ele>673</ele>
        <time>2020-07-03T22:44:45Z</time>
      </trkpt>
      <trkpt lat="47.85841" lon="7.17647">
        <ele>672</ele>
        <time>2020-07-03T22:44:49Z</time>
      </trkpt>
      <trkpt lat="47.85876" lon="7.1765">
        <ele>670</ele>
        <time>2020-07-03T22:44:57Z</time>
      </trkpt>
      <trkpt lat="47.859" lon="7.17649">
        <ele>670</ele>
        <time>2020-07-03T22:45:02Z</time>
      </trkpt>
      <trkpt lat="47.85914" lon="7.17641">
        <ele>672</ele>
        <time>2020-07-03T22:45:06Z</time>
      </trkpt>
      <trkpt lat="47.85912" lon="7.17625">
        <ele>678</ele>
        <time>2020-07-03T22:45:09Z</time>
      </trkpt>
      <trkpt lat="47.85905" lon="7.17604">
        <ele>685</ele>
        <time>2020-07-03T22:45:12Z</time>
      </trkpt>
      <trkpt lat="47.85892" lon="7.17582">
        <ele>692</ele>
        <time>2020-07-03T22:45:17Z</time>
      </trkpt>
      <trkpt lat="47.85875" lon="7.17571">
        <ele>696</ele>
        <time>2020-07-03T22:45:21Z</time>
      </trkpt>
      <trkpt lat="47.85867" lon="7.17556">
        <ele>701</ele>
        <time>2020-07-03T22:45:24Z</time>
      </trkpt>
      <trkpt lat="47.85863" lon="7.17537">
        <ele>706</ele>
        <time>2020-07-03T22:45:27Z</time>
      </trkpt>
      <trkpt lat="47.85863" lon="7.17463">
        <ele>726</ele>
        <time>2020-07-03T22:45:39Z</time>
      </trkpt>
      <trkpt lat="47.85873" lon="7.17463">
        <ele>725</ele>
        <time>2020-07-03T22:45:41Z</time>
      </trkpt>
      <trkpt lat="47.85885" lon="7.17458">
        <ele>726</ele>
        <time>2020-07-03T22:45:44Z</time>
      </trkpt>
      <trkpt lat="47.85916" lon="7.17432">
        <ele>733</ele>
        <time>2020-07-03T22:45:52Z</time>
      </trkpt>
      <trkpt lat="47.85928" lon="7.17411">
        <ele>734</ele>
        <time>2020-07-03T22:45:57Z</time>
      </trkpt>
      <trkpt lat="47.85987" lon="7.17248">
        <ele>739</ele>
        <time>2020-07-03T22:46:26Z</time>
      </trkpt>
      <trkpt lat="47.85991" lon="7.17224">
        <ele>742</ele>
        <time>2020-07-03T22:46:30Z</time>
      </trkpt>
      <trkpt lat="47.85991" lon="7.17218">
        <ele>743</ele>
        <time>2020-07-03T22:46:31Z</time>
      </trkpt>
      <trkpt lat="47.86029" lon="7.17111">
        <ele>755</ele>
        <time>2020-07-03T22:46:50Z</time>
      </trkpt>
      <trkpt lat="47.86048" lon="7.1708">
        <ele>758</ele>
        <time>2020-07-03T22:46:56Z</time>
      </trkpt>
      <trkpt lat="47.86061" lon="7.17062">
        <ele>758</ele>
        <time>2020-07-03T22:47:00Z</time>
      </trkpt>
      <trkpt lat="47.86093" lon="7.17011">
        <ele>762</ele>
        <time>2020-07-03T22:47:11Z</time>
      </trkpt>
      <trkpt lat="47.86152" lon="7.16973">
        <ele>767</ele>
        <time>2020-07-03T22:47:26Z</time>
      </trkpt>
      <trkpt lat="47.86157" lon="7.16964">
        <ele>768</ele>
        <time>2020-07-03T22:47:28Z</time>
      </trkpt>
      <trkpt lat="47.86149" lon="7.16959">
        <ele>770</ele>
        <time>2020-07-03T22:47:30Z</time>
      </trkpt>
      <trkpt lat="47.86126" lon="7.1695">
        <ele>775</ele>
        <time>2020-07-03T22:47:36Z</time>
      </trkpt>
      <trkpt lat="47.86097" lon="7.16948">
        <ele>778</ele>
        <time>2020-07-03T22:47:42Z</time>
      </trkpt>
      <trkpt lat="47.86066" lon="7.16952">
        <ele>782</ele>
        <time>2020-07-03T22:47:50Z</time>
      </trkpt>
      <trkpt lat="47.86017" lon="7.16969">
        <ele>786</ele>
        <time>2020-07-03T22:48:01Z</time>
      </trkpt>
      <trkpt lat="47.85987" lon="7.16984">
        <ele>790</ele>
        <time>2020-07-03T22:48:09Z</time>
      </trkpt>
      <trkpt lat="47.85887" lon="7.17092">
        <ele>791</ele>
        <time>2020-07-03T22:48:38Z</time>
      </trkpt>
      <trkpt lat="47.85878" lon="7.17098">
        <ele>790</ele>
        <time>2020-07-03T22:48:40Z</time>
      </trkpt>
      <trkpt lat="47.85866" lon="7.17094">
        <ele>792</ele>
        <time>2020-07-03T22:48:43Z</time>
      </trkpt>
      <trkpt lat="47.85865" lon="7.17083">
        <ele>794</ele>
        <time>2020-07-03T22:48:45Z</time>
      </trkpt>
      <trkpt lat="47.85868" lon="7.17069">
        <ele>797</ele>
        <time>2020-07-03T22:48:47Z</time>
      </trkpt>
      <trkpt lat="47.85883" lon="7.17028">
        <ele>805</ele>
        <time>2020-07-03T22:48:54Z</time>
      </trkpt>
      <trkpt lat="47.85934" lon="7.16924">
        <ele>817</ele>
        <time>2020-07-03T22:49:14Z</time>
      </trkpt>
      <trkpt lat="47.85952" lon="7.16896">
        <ele>820</ele>
        <time>2020-07-03T22:49:20Z</time>
      </trkpt>
      <trkpt lat="47.85999" lon="7.16821">
        <ele>826</ele>
        <time>2020-07-03T22:49:36Z</time>
      </trkpt>
      <trkpt lat="47.86054" lon="7.1672">
        <ele>841</ele>
        <time>2020-07-03T22:49:57Z</time>
      </trkpt>
      <trkpt lat="47.86103" lon="7.16664">
        <ele>845</ele>
        <time>2020-07-03T22:50:11Z</time>
      </trkpt>
      <trkpt lat="47.86121" lon="7.16638">
        <ele>849</ele>
        <time>2020-07-03T22:50:17Z</time>
      </trkpt>
      <trkpt lat="47.86062" lon="7.16663">
        <ele>853</ele>
        <time>2020-07-03T22:50:31Z</time>
      </trkpt>
      <trkpt lat="47.86012" lon="7.16704">
        <ele>854</ele>
        <time>2020-07-03T22:50:45Z</time>
      </trkpt>
      <trkpt lat="47.86028" lon="7.16596">
        <ele>882</ele>
        <time>2020-07-03T22:51:02Z</time>
      </trkpt>
      <trkpt lat="47.85982" lon="7.16632">
        <ele>880</ele>
        <time>2020-07-03T22:51:14Z</time>
      </trkpt>
      <trkpt lat="47.85978" lon="7.16631">
        <ele>881</ele>
        <time>2020-07-03T22:51:15Z</time>
      </trkpt>
      <trkpt lat="47.85968" lon="7.16638">
        <ele>880</ele>
        <time>2020-07-03T22:51:18Z</time>
      </trkpt>
      <trkpt lat="47.85961" lon="7.16635">
        <ele>882</ele>
        <time>2020-07-03T22:51:19Z</time>
      </trkpt>
      <trkpt lat="47.85954" lon="7.16641">
        <ele>882</ele>
        <time>2020-07-03T22:51:21Z</time>
      </trkpt>
      <trkpt lat="47.85944" lon="7.16639">
        <ele>884</ele>
        <time>2020-07-03T22:51:24Z</time>
      </trkpt>
      <trkpt lat="47.85941" lon="7.16635">
        <ele>886</ele>
        <time>2020-07-03T22:51:25Z</time>
      </trkpt>
      <trkpt lat="47.85946" lon="7.16617">
        <ele>889</ele>
        <time>2020-07-03T22:51:28Z</time>
      </trkpt>
      <trkpt lat="47.8595" lon="7.16614">
        <ele>889</ele>
        <time>2020-07-03T22:51:29Z</time>
      </trkpt>
      <trkpt lat="47.85946" lon="7.16617">
        <ele>889</ele>
        <time>2020-07-03T22:51:30Z</time>
      </trkpt>
      <trkpt lat="47.85941" lon="7.16616">
        <ele>889</ele>
        <time>2020-07-03T22:51:31Z</time>
      </trkpt>
      <trkpt lat="47.85933" lon="7.16609">
        <ele>892</ele>
        <time>2020-07-03T22:51:33Z</time>
      </trkpt>
      <trkpt lat="47.85934" lon="7.16582">
        <ele>897</ele>
        <time>2020-07-03T22:51:37Z</time>
      </trkpt>
      <trkpt lat="47.85937" lon="7.16571">
        <ele>897</ele>
        <time>2020-07-03T22:51:39Z</time>
      </trkpt>
      <trkpt lat="47.85945" lon="7.16572">
        <ele>897</ele>
        <time>2020-07-03T22:51:41Z</time>
      </trkpt>
      <trkpt lat="47.85946" lon="7.1657">
        <ele>897</ele>
        <time>2020-07-03T22:51:42Z</time>
      </trkpt>
      <trkpt lat="47.85948" lon="7.16555">
        <ele>899</ele>
        <time>2020-07-03T22:51:44Z</time>
      </trkpt>
      <trkpt lat="47.85952" lon="7.16549">
        <ele>900</ele>
        <time>2020-07-03T22:51:45Z</time>
      </trkpt>
      <trkpt lat="47.85962" lon="7.16542">
        <ele>901</ele>
        <time>2020-07-03T22:51:48Z</time>
      </trkpt>
      <trkpt lat="47.85963" lon="7.16538">
        <ele>901</ele>
        <time>2020-07-03T22:51:48Z</time>
      </trkpt>
      <trkpt lat="47.85961" lon="7.16534">
        <ele>902</ele>
        <time>2020-07-03T22:51:49Z</time>
      </trkpt>
      <trkpt lat="47.85962" lon="7.16516">
        <ele>904</ele>
        <time>2020-07-03T22:51:52Z</time>
      </trkpt>
      <trkpt lat="47.85961" lon="7.16498">
        <ele>906</ele>
        <time>2020-07-03T22:51:55Z</time>
      </trkpt>
      <trkpt lat="47.85959" lon="7.16498">
        <ele>906</ele>
        <time>2020-07-03T22:51:55Z</time>
      </trkpt>
      <trkpt lat="47.8596" lon="7.16493">
        <ele>907</ele>
        <time>2020-07-03T22:51:56Z</time>
      </trkpt>
      <trkpt lat="47.85958" lon="7.16486">
        <ele>907</ele>
        <time>2020-07-03T22:51:57Z</time>
      </trkpt>
      <trkpt lat="47.85963" lon="7.16475">
        <ele>909</ele>
        <time>2020-07-03T22:51:59Z</time>
      </trkpt>
      <trkpt lat="47.85961" lon="7.16447">
        <ele>911</ele>
        <time>2020-07-03T22:52:04Z</time>
      </trkpt>
      <trkpt lat="47.85967" lon="7.16436">
        <ele>913</ele>
        <time>2020-07-03T22:52:06Z</time>
      </trkpt>
      <trkpt lat="47.85969" lon="7.16415">
        <ele>915</ele>
        <time>2020-07-03T22:52:09Z</time>
      </trkpt>
      <trkpt lat="47.85973" lon="7.16401">
        <ele>917</ele>
        <time>2020-07-03T22:52:12Z</time>
      </trkpt>
      <trkpt lat="47.85981" lon="7.16394">
        <ele>919</ele>
        <time>2020-07-03T22:52:14Z</time>
      </trkpt>
      <trkpt lat="47.85985" lon="7.16381">
        <ele>921</ele>
        <time>2020-07-03T22:52:16Z</time>
      </trkpt>
      <trkpt lat="47.85985" lon="7.16373">
        <ele>922</ele>
        <time>2020-07-03T22:52:17Z</time>
      </trkpt>
      <trkpt lat="47.85982" lon="7.16359">
        <ele>924</ele>
        <time>2020-07-03T22:52:20Z</time>
      </trkpt>
      <trkpt lat="47.85976" lon="7.16343">
        <ele>924</ele>
        <time>2020-07-03T22:52:23Z</time>
      </trkpt>
      <trkpt lat="47.85969" lon="7.16341">
        <ele>923</ele>
        <time>2020-07-03T22:52:24Z</time>
      </trkpt>
      <trkpt lat="47.85967" lon="7.16339">
        <ele>923</ele>
        <time>2020-07-03T22:52:25Z</time>
      </trkpt>
      <trkpt lat="47.85966" lon="7.16326">
        <ele>924</ele>
        <time>2020-07-03T22:52:27Z</time>
      </trkpt>
      <trkpt lat="47.85968" lon="7.16317">
        <ele>925</ele>
        <time>2020-07-03T22:52:28Z</time>
      </trkpt>
      <trkpt lat="47.85973" lon="7.1631">
        <ele>926</ele>
        <time>2020-07-03T22:52:30Z</time>
      </trkpt>
      <trkpt lat="47.85975" lon="7.16286">
        <ele>928</ele>
        <time>2020-07-03T22:52:34Z</time>
      </trkpt>
      <trkpt lat="47.85986" lon="7.1621">
        <ele>933</ele>
        <time>2020-07-03T22:52:46Z</time>
      </trkpt>
      <trkpt lat="47.85987" lon="7.16189">
        <ele>933</ele>
        <time>2020-07-03T22:52:49Z</time>
      </trkpt>
      <trkpt lat="47.85979" lon="7.16182">
        <ele>931</ele>
        <time>2020-07-03T22:52:51Z</time>
      </trkpt>
      <trkpt lat="47.85975" lon="7.16172">
        <ele>931</ele>
        <time>2020-07-03T22:52:53Z</time>
      </trkpt>
      <trkpt lat="47.85967" lon="7.16122">
        <ele>927</ele>
        <time>2020-07-03T22:53:01Z</time>
      </trkpt>
      <trkpt lat="47.8596" lon="7.161">
        <ele>925</ele>
        <time>2020-07-03T22:53:05Z</time>
      </trkpt>
      <trkpt lat="47.85957" lon="7.16072">
        <ele>922</ele>
        <time>2020-07-03T22:53:10Z</time>
      </trkpt>
      <trkpt lat="47.85955" lon="7.1604">
        <ele>920</ele>
        <time>2020-07-03T22:53:15Z</time>
      </trkpt>
      <trkpt lat="47.85958" lon="7.15999">
        <ele>918</ele>
        <time>2020-07-03T22:53:21Z</time>
      </trkpt>
      <trkpt lat="47.85957" lon="7.1599">
        <ele>917</ele>
        <time>2020-07-03T22:53:23Z</time>
      </trkpt>
      <trkpt lat="47.85969" lon="7.15939">
        <ele>915</ele>
        <time>2020-07-03T22:53:31Z</time>
      </trkpt>
      <trkpt lat="47.85982" lon="7.15925">
        <ele>917</ele>
        <time>2020-07-03T22:53:35Z</time>
      </trkpt>
      <trkpt lat="47.85986" lon="7.15913">
        <ele>917</ele>
        <time>2020-07-03T22:53:37Z</time>
      </trkpt>
      <trkpt lat="47.8599" lon="7.15882">
        <ele>916</ele>
        <time>2020-07-03T22:53:42Z</time>
      </trkpt>
      <trkpt lat="47.85997" lon="7.15853">
        <ele>915</ele>
        <time>2020-07-03T22:53:47Z</time>
      </trkpt>
      <trkpt lat="47.86011" lon="7.1582">
        <ele>915</ele>
        <time>2020-07-03T22:53:53Z</time>
      </trkpt>
      <trkpt lat="47.86014" lon="7.15795">
        <ele>913</ele>
        <time>2020-07-03T22:53:57Z</time>
      </trkpt>
      <trkpt lat="47.86019" lon="7.15776">
        <ele>912</ele>
        <time>2020-07-03T22:54:00Z</time>
      </trkpt>
      <trkpt lat="47.86014" lon="7.1576">
        <ele>909</ele>
        <time>2020-07-03T22:54:03Z</time>
      </trkpt>
      <trkpt lat="47.86012" lon="7.15739">
        <ele>906</ele>
        <time>2020-07-03T22:54:06Z</time>
      </trkpt>
      <trkpt lat="47.8602" lon="7.15694">
        <ele>902</ele>
        <time>2020-07-03T22:54:13Z</time>
      </trkpt>
      <trkpt lat="47.86021" lon="7.15679">
        <ele>900</ele>
        <time>2020-07-03T22:54:16Z</time>
      </trkpt>
      <trkpt lat="47.86016" lon="7.15533">
        <ele>892</ele>
        <time>2020-07-03T22:54:39Z</time>
      </trkpt>
      <trkpt lat="47.85997" lon="7.15407">
        <ele>889</ele>
        <time>2020-07-03T22:54:59Z</time>
      </trkpt>
      <trkpt lat="47.85989" lon="7.1537">
        <ele>888</ele>
        <time>2020-07-03T22:55:05Z</time>
      </trkpt>
      <trkpt lat="47.85981" lon="7.15345">
        <ele>887</ele>
        <time>2020-07-03T22:55:09Z</time>
      </trkpt>
      <trkpt lat="47.85953" lon="7.15286">
        <ele>883</ele>
        <time>2020-07-03T22:55:21Z</time>
      </trkpt>
      <trkpt lat="47.85949" lon="7.1528">
        <ele>883</ele>
        <time>2020-07-03T22:55:22Z</time>
      </trkpt>
      <trkpt lat="47.85946" lon="7.15274">
        <ele>883</ele>
        <time>2020-07-03T22:55:23Z</time>
      </trkpt>
      <trkpt lat="47.85928" lon="7.15258">
        <ele>881</ele>
        <time>2020-07-03T22:55:28Z</time>
      </trkpt>
      <trkpt lat="47.85927" lon="7.1525">
        <ele>882</ele>
        <time>2020-07-03T22:55:29Z</time>
      </trkpt>
      <trkpt lat="47.85933" lon="7.15248">
        <ele>882</ele>
        <time>2020-07-03T22:55:31Z</time>
      </trkpt>
      <trkpt lat="47.85897" lon="7.15059">
        <ele>897</ele>
        <time>2020-07-03T22:56:01Z</time>
      </trkpt>
      <trkpt lat="47.85896" lon="7.15052">
        <ele>897</ele>
        <time>2020-07-03T22:56:03Z</time>
      </trkpt>
      <trkpt lat="47.85893" lon="7.1504">
        <ele>898</ele>
        <time>2020-07-03T22:56:05Z</time>
      </trkpt>
      <trkpt lat="47.85886" lon="7.15043">
        <ele>898</ele>
        <time>2020-07-03T22:56:06Z</time>
      </trkpt>
      <trkpt lat="47.85884" lon="7.15033">
        <ele>898</ele>
        <time>2020-07-03T22:56:08Z</time>
      </trkpt>
      <trkpt lat="47.85883" lon="7.15026">
        <ele>898</ele>
        <time>2020-07-03T22:56:09Z</time>
      </trkpt>
      <trkpt lat="47.85881" lon="7.15026">
        <ele>898</ele>
        <time>2020-07-03T22:56:09Z</time>
      </trkpt>
      <trkpt lat="47.85876" lon="7.15022">
        <ele>898</ele>
        <time>2020-07-03T22:56:11Z</time>
      </trkpt>
      <trkpt lat="47.85875" lon="7.15019">
        <ele>898</ele>
        <time>2020-07-03T22:56:11Z</time>
      </trkpt>
      <trkpt lat="47.85878" lon="7.1501">
        <ele>899</ele>
        <time>2020-07-03T22:56:13Z</time>
      </trkpt>
      <trkpt lat="47.8588" lon="7.15008">
        <ele>899</ele>
        <time>2020-07-03T22:56:13Z</time>
      </trkpt>
      <trkpt lat="47.85878" lon="7.15001">
        <ele>899</ele>
        <time>2020-07-03T22:56:15Z</time>
      </trkpt>
      <trkpt lat="47.85876" lon="7.14991">
        <ele>899</ele>
        <time>2020-07-03T22:56:16Z</time>
      </trkpt>
      <trkpt lat="47.85883" lon="7.14988">
        <ele>899</ele>
        <time>2020-07-03T22:56:18Z</time>
      </trkpt>
      <trkpt lat="47.85879" lon="7.14968">
        <ele>899</ele>
        <time>2020-07-03T22:56:21Z</time>
      </trkpt>
      <trkpt lat="47.85883" lon="7.14967">
        <ele>899</ele>
        <time>2020-07-03T22:56:22Z</time>
      </trkpt>
      <trkpt lat="47.85885" lon="7.14966">
        <ele>899</ele>
        <time>2020-07-03T22:56:23Z</time>
      </trkpt>
      <trkpt lat="47.85888" lon="7.14965">
        <ele>899</ele>
        <time>2020-07-03T22:56:23Z</time>
      </trkpt>
      <trkpt lat="47.85885" lon="7.14952">
        <ele>899</ele>
        <time>2020-07-03T22:56:26Z</time>
      </trkpt>
      <trkpt lat="47.85884" lon="7.14942">
        <ele>899</ele>
        <time>2020-07-03T22:56:27Z</time>
      </trkpt>
      <trkpt lat="47.85879" lon="7.14932">
        <ele>899</ele>
        <time>2020-07-03T22:56:29Z</time>
      </trkpt>
      <trkpt lat="47.85875" lon="7.14928">
        <ele>899</ele>
        <time>2020-07-03T22:56:30Z</time>
      </trkpt>
      <trkpt lat="47.8587" lon="7.14927">
        <ele>899</ele>
        <time>2020-07-03T22:56:31Z</time>
      </trkpt>
      <trkpt lat="47.8586" lon="7.14876">
        <ele>902</ele>
        <time>2020-07-03T22:56:40Z</time>
      </trkpt>
      <trkpt lat="47.85856" lon="7.14873">
        <ele>902</ele>
        <time>2020-07-03T22:56:41Z</time>
      </trkpt>
      <trkpt lat="47.85854" lon="7.14874">
        <ele>902</ele>
        <time>2020-07-03T22:56:41Z</time>
      </trkpt>
      <trkpt lat="47.85854" lon="7.14877">
        <ele>902</ele>
        <time>2020-07-03T22:56:42Z</time>
      </trkpt>
      <trkpt lat="47.85854" lon="7.14877">
        <ele>902</ele>
        <time>2020-07-03T22:56:42Z</time>
      </trkpt>
      <trkpt lat="47.8585" lon="7.14863">
        <ele>904</ele>
        <time>2020-07-03T22:56:44Z</time>
      </trkpt>
      <trkpt lat="47.85823" lon="7.14874">
        <ele>903</ele>
        <time>2020-07-03T22:56:51Z</time>
      </trkpt>
      <trkpt lat="47.85812" lon="7.14873">
        <ele>902</ele>
        <time>2020-07-03T22:56:53Z</time>
      </trkpt>
      <trkpt lat="47.85802" lon="7.14869">
        <ele>901</ele>
        <time>2020-07-03T22:56:56Z</time>
      </trkpt>
      <trkpt lat="47.85804" lon="7.14757">
        <ele>914</ele>
        <time>2020-07-03T22:57:13Z</time>
      </trkpt>
      <trkpt lat="47.85799" lon="7.14725">
        <ele>918</ele>
        <time>2020-07-03T22:57:18Z</time>
      </trkpt>
      <trkpt lat="47.85782" lon="7.14683">
        <ele>923</ele>
        <time>2020-07-03T22:57:26Z</time>
      </trkpt>
      <trkpt lat="47.85732" lon="7.14578">
        <ele>932</ele>
        <time>2020-07-03T22:57:46Z</time>
      </trkpt>
      <trkpt lat="47.85716" lon="7.14509">
        <ele>938</ele>
        <time>2020-07-03T22:57:58Z</time>
      </trkpt>
      <trkpt lat="47.85717" lon="7.14346">
        <ele>959</ele>
        <time>2020-07-03T22:58:23Z</time>
      </trkpt>
      <trkpt lat="47.85705" lon="7.14291">
        <ele>962</ele>
        <time>2020-07-03T22:58:32Z</time>
      </trkpt>
      <trkpt lat="47.85696" lon="7.14218">
        <ele>968</ele>
        <time>2020-07-03T22:58:44Z</time>
      </trkpt>
      <trkpt lat="47.85698" lon="7.14155">
        <ele>975</ele>
        <time>2020-07-03T22:58:54Z</time>
      </trkpt>
      <trkpt lat="47.85719" lon="7.141">
        <ele>983</ele>
        <time>2020-07-03T22:59:04Z</time>
      </trkpt>
      <trkpt lat="47.8573" lon="7.14047">
        <ele>988</ele>
        <time>2020-07-03T22:59:12Z</time>
      </trkpt>
      <trkpt lat="47.85737" lon="7.13989">
        <ele>992</ele>
        <time>2020-07-03T22:59:22Z</time>
      </trkpt>
      <trkpt lat="47.85736" lon="7.13918">
        <ele>997</ele>
        <time>2020-07-03T22:59:33Z</time>
      </trkpt>
      <trkpt lat="47.8576" lon="7.13874">
        <ele>1000</ele>
        <time>2020-07-03T22:59:42Z</time>
      </trkpt>
      <trkpt lat="47.8576" lon="7.13861">
        <ele>1001</ele>
        <time>2020-07-03T22:59:44Z</time>
      </trkpt>
      <trkpt lat="47.85708" lon="7.13776">
        <ele>1000</ele>
        <time>2020-07-03T23:00:02Z</time>
      </trkpt>
      <trkpt lat="47.85672" lon="7.13704">
        <ele>999</ele>
        <time>2020-07-03T23:00:16Z</time>
      </trkpt>
      <trkpt lat="47.8563" lon="7.13626">
        <ele>1006</ele>
        <time>2020-07-03T23:00:31Z</time>
      </trkpt>
      <trkpt lat="47.85618" lon="7.13624">
        <ele>1006</ele>
        <time>2020-07-03T23:00:34Z</time>
      </trkpt>
      <trkpt lat="47.85591" lon="7.13618">
        <ele>1006</ele>
        <time>2020-07-03T23:00:41Z</time>
      </trkpt>
      <trkpt lat="47.85588" lon="7.13606">
        <ele>1008</ele>
        <time>2020-07-03T23:00:43Z</time>
      </trkpt>
      <trkpt lat="47.85559" lon="7.13587">
        <ele>1011</ele>
        <time>2020-07-03T23:00:50Z</time>
      </trkpt>
      <trkpt lat="47.85503" lon="7.13535">
        <ele>1020</ele>
        <time>2020-07-03T23:01:05Z</time>
      </trkpt>
      <trkpt lat="47.85488" lon="7.13525">
        <ele>1023</ele>
        <time>2020-07-03T23:01:09Z</time>
      </trkpt>
      <trkpt lat="47.85473" lon="7.13517">
        <ele>1027</ele>
        <time>2020-07-03T23:01:13Z</time>
      </trkpt>
      <trkpt lat="47.85465" lon="7.13516">
        <ele>1028</ele>
        <time>2020-07-03T23:01:15Z</time>
      </trkpt>
      <trkpt lat="47.85457" lon="7.13516">
        <ele>1029</ele>
        <time>2020-07-03T23:01:17Z</time>
      </trkpt>
      <trkpt lat="47.85384" lon="7.13545">
        <ele>1034</ele>
        <time>2020-07-03T23:01:34Z</time>
      </trkpt>
      <trkpt lat="47.85351" lon="7.13563">
        <ele>1036</ele>
        <time>2020-07-03T23:01:43Z</time>
      </trkpt>
      <trkpt lat="47.85318" lon="7.13586">
        <ele>1038</ele>
        <time>2020-07-03T23:01:51Z</time>
      </trkpt>
      <trkpt lat="47.85319" lon="7.13562">
        <ele>1042</ele>
        <time>2020-07-03T23:01:55Z</time>
      </trkpt>
      <trkpt lat="47.85326" lon="7.13539">
        <ele>1045</ele>
        <time>2020-07-03T23:01:59Z</time>
      </trkpt>
      <trkpt lat="47.85326" lon="7.13529">
        <ele>1046</ele>
        <time>2020-07-03T23:02:00Z</time>
      </trkpt>
      <trkpt lat="47.85308" lon="7.13493">
        <ele>1057</ele>
        <time>2020-07-03T23:02:07Z</time>
      </trkpt>
      <trkpt lat="47.85289" lon="7.13441">
        <ele>1072</ele>
        <time>2020-07-03T23:02:17Z</time>
      </trkpt>
      <trkpt lat="47.85269" lon="7.13421">
        <ele>1080</ele>
        <time>2020-07-03T23:02:22Z</time>
      </trkpt>
      <trkpt lat="47.85248" lon="7.13372">
        <ele>1087</ele>
        <time>2020-07-03T23:02:31Z</time>
      </trkpt>
      <trkpt lat="47.8523" lon="7.13341">
        <ele>1090</ele>
        <time>2020-07-03T23:02:38Z</time>
      </trkpt>
      <trkpt lat="47.85204" lon="7.13315">
        <ele>1089</ele>
        <time>2020-07-03T23:02:45Z</time>
      </trkpt>
      <trkpt lat="47.85195" lon="7.13312">
        <ele>1089</ele>
        <time>2020-07-03T23:02:47Z</time>
      </trkpt>
      <trkpt lat="47.85193" lon="7.13304">
        <ele>1089</ele>
        <time>2020-07-03T23:02:49Z</time>
      </trkpt>
      <trkpt lat="47.85177" lon="7.13263">
        <ele>1086</ele>
        <time>2020-07-03T23:02:56Z</time>
      </trkpt>
      <trkpt lat="47.85169" lon="7.13256">
        <ele>1085</ele>
        <time>2020-07-03T23:02:58Z</time>
      </trkpt>
      <trkpt lat="47.85159" lon="7.13254">
        <ele>1083</ele>
        <time>2020-07-03T23:03:01Z</time>
      </trkpt>
      <trkpt lat="47.85164" lon="7.13237">
        <ele>1083</ele>
        <time>2020-07-03T23:03:04Z</time>
      </trkpt>
      <trkpt lat="47.85165" lon="7.13209">
        <ele>1083</ele>
        <time>2020-07-03T23:03:08Z</time>
      </trkpt>
      <trkpt lat="47.85163" lon="7.13169">
        <ele>1081</ele>
        <time>2020-07-03T23:03:14Z</time>
      </trkpt>
      <trkpt lat="47.85157" lon="7.1311">
        <ele>1077</ele>
        <time>2020-07-03T23:03:24Z</time>
      </trkpt>
      <trkpt lat="47.85134" lon="7.12973">
        <ele>1060</ele>
        <time>2020-07-03T23:03:46Z</time>
      </trkpt>
      <trkpt lat="47.85138" lon="7.12949">
        <ele>1059</ele>
        <time>2020-07-03T23:03:50Z</time>
      </trkpt>
      <trkpt lat="47.85136" lon="7.12939">
        <ele>1057</ele>
        <time>2020-07-03T23:03:51Z</time>
      </trkpt>
      <trkpt lat="47.85125" lon="7.12824">
        <ele>1044</ele>
        <time>2020-07-03T23:04:09Z</time>
      </trkpt>
      <trkpt lat="47.85115" lon="7.12765">
        <ele>1037</ele>
        <time>2020-07-03T23:04:19Z</time>
      </trkpt>
      <trkpt lat="47.85101" lon="7.12704">
        <ele>1028</ele>
        <time>2020-07-03T23:04:29Z</time>
      </trkpt>
      <trkpt lat="47.85088" lon="7.12634">
        <ele>1018</ele>
        <time>2020-07-03T23:04:40Z</time>
      </trkpt>
      <trkpt lat="47.85075" lon="7.12531">
        <ele>1008</ele>
        <time>2020-07-03T23:04:57Z</time>
      </trkpt>
      <trkpt lat="47.85059" lon="7.12443">
        <ele>995</ele>
        <time>2020-07-03T23:05:11Z</time>
      </trkpt>
      <trkpt lat="47.85056" lon="7.12364">
        <ele>986</ele>
        <time>2020-07-03T23:05:24Z</time>
      </trkpt>
      <trkpt lat="47.85057" lon="7.12343">
        <ele>984</ele>
        <time>2020-07-03T23:05:27Z</time>
      </trkpt>
      <trkpt lat="47.85068" lon="7.12308">
        <ele>990</ele>
        <time>2020-07-03T23:05:33Z</time>
      </trkpt>
      <trkpt lat="47.85072" lon="7.12281">
        <ele>993</ele>
        <time>2020-07-03T23:05:37Z</time>
      </trkpt>
      <trkpt lat="47.85069" lon="7.12258">
        <ele>991</ele>
        <time>2020-07-03T23:05:41Z</time>
      </trkpt>
      <trkpt lat="47.85066" lon="7.1224">
        <ele>989</ele>
        <time>2020-07-03T23:05:44Z</time>
      </trkpt>
      <trkpt lat="47.85067" lon="7.12212">
        <ele>990</ele>
        <time>2020-07-03T23:05:48Z</time>
      </trkpt>
      <trkpt lat="47.8507" lon="7.12193">
        <ele>991</ele>
        <time>2020-07-03T23:05:51Z</time>
      </trkpt>
      <trkpt lat="47.85075" lon="7.12184">
        <ele>993</ele>
        <time>2020-07-03T23:05:53Z</time>
      </trkpt>
      <trkpt lat="47.8507" lon="7.12164">
        <ele>991</ele>
        <time>2020-07-03T23:05:56Z</time>
      </trkpt>
      <trkpt lat="47.85025" lon="7.12102">
        <ele>973</ele>
        <time>2020-07-03T23:06:11Z</time>
      </trkpt>
      <trkpt lat="47.84994" lon="7.12052">
        <ele>960</ele>
        <time>2020-07-03T23:06:21Z</time>
      </trkpt>
      <trkpt lat="47.84963" lon="7.11964">
        <ele>935</ele>
        <time>2020-07-03T23:06:37Z</time>
      </trkpt>
      <trkpt lat="47.8492" lon="7.11867">
        <ele>919</ele>
        <time>2020-07-03T23:06:55Z</time>
      </trkpt>
      <trkpt lat="47.84895" lon="7.11802">
        <ele>911</ele>
        <time>2020-07-03T23:07:07Z</time>
      </trkpt>
      <trkpt lat="47.84888" lon="7.11781">
        <ele>909</ele>
        <time>2020-07-03T23:07:11Z</time>
      </trkpt>
      <trkpt lat="47.84882" lon="7.11769">
        <ele>909</ele>
        <time>2020-07-03T23:07:13Z</time>
      </trkpt>
      <trkpt lat="47.84871" lon="7.11772">
        <ele>910</ele>
        <time>2020-07-03T23:07:16Z</time>
      </trkpt>
      <trkpt lat="47.84867" lon="7.11718">
        <ele>908</ele>
        <time>2020-07-03T23:07:24Z</time>
      </trkpt>
      <trkpt lat="47.84851" lon="7.11597">
        <ele>904</ele>
        <time>2020-07-03T23:07:43Z</time>
      </trkpt>
      <trkpt lat="47.84854" lon="7.11528">
        <ele>890</ele>
        <time>2020-07-03T23:07:54Z</time>
      </trkpt>
      <trkpt lat="47.84851" lon="7.11518">
        <ele>888</ele>
        <time>2020-07-03T23:07:56Z</time>
      </trkpt>
      <trkpt lat="47.84843" lon="7.11509">
        <ele>888</ele>
        <time>2020-07-03T23:07:58Z</time>
      </trkpt>
      <trkpt lat="47.84835" lon="7.11507">
        <ele>890</ele>
        <time>2020-07-03T23:08:00Z</time>
      </trkpt>
      <trkpt lat="47.84804" lon="7.11533">
        <ele>892</ele>
        <time>2020-07-03T23:08:09Z</time>
      </trkpt>
      <trkpt lat="47.84765" lon="7.11575">
        <ele>897</ele>
        <time>2020-07-03T23:08:20Z</time>
      </trkpt>
      <trkpt lat="47.84743" lon="7.11585">
        <ele>895</ele>
        <time>2020-07-03T23:08:25Z</time>
      </trkpt>
      <trkpt lat="47.84714" lon="7.11604">
        <ele>891</ele>
        <time>2020-07-03T23:08:33Z</time>
      </trkpt>
      <trkpt lat="47.84682" lon="7.11629">
        <ele>888</ele>
        <time>2020-07-03T23:08:41Z</time>
      </trkpt>
      <trkpt lat="47.84663" lon="7.11632">
        <ele>885</ele>
        <time>2020-07-03T23:08:45Z</time>
      </trkpt>
      <trkpt lat="47.84634" lon="7.11632">
        <ele>884</ele>
        <time>2020-07-03T23:08:52Z</time>
      </trkpt>
      <trkpt lat="47.84622" lon="7.11629">
        <ele>883</ele>
        <time>2020-07-03T23:08:55Z</time>
      </trkpt>
      <trkpt lat="47.84546" lon="7.11593">
        <ele>878</ele>
        <time>2020-07-03T23:09:14Z</time>
      </trkpt>
      <trkpt lat="47.84489" lon="7.11578">
        <ele>881</ele>
        <time>2020-07-03T23:09:27Z</time>
      </trkpt>
      <trkpt lat="47.84453" lon="7.11532">
        <ele>879</ele>
        <time>2020-07-03T23:09:38Z</time>
      </trkpt>
      <trkpt lat="47.84431" lon="7.115">
        <ele>880</ele>
        <time>2020-07-03T23:09:45Z</time>
      </trkpt>
      <trkpt lat="47.84421" lon="7.11477">
        <ele>879</ele>
        <time>2020-07-03T23:09:50Z</time>
      </trkpt>
      <trkpt lat="47.84393" lon="7.11349">
        <ele>865</ele>
        <time>2020-07-03T23:10:11Z</time>
      </trkpt>
      <trkpt lat="47.84382" lon="7.11306">
        <ele>857</ele>
        <time>2020-07-03T23:10:18Z</time>
      </trkpt>
      <trkpt lat="47.84374" lon="7.11289">
        <ele>854</ele>
        <time>2020-07-03T23:10:21Z</time>
      </trkpt>
      <trkpt lat="47.8436" lon="7.11267">
        <ele>851</ele>
        <time>2020-07-03T23:10:26Z</time>
      </trkpt>
      <trkpt lat="47.84342" lon="7.11262">
        <ele>855</ele>
        <time>2020-07-03T23:10:30Z</time>
      </trkpt>
      <trkpt lat="47.84319" lon="7.11262">
        <ele>854</ele>
        <time>2020-07-03T23:10:36Z</time>
      </trkpt>
      <trkpt lat="47.84308" lon="7.11264">
        <ele>852</ele>
        <time>2020-07-03T23:10:38Z</time>
      </trkpt>
      <trkpt lat="47.84284" lon="7.11288">
        <ele>856</ele>
        <time>2020-07-03T23:10:45Z</time>
      </trkpt>
      <trkpt lat="47.84254" lon="7.11308">
        <ele>857</ele>
        <time>2020-07-03T23:10:53Z</time>
      </trkpt>
      <trkpt lat="47.84226" lon="7.11332">
        <ele>858</ele>
        <time>2020-07-03T23:11:00Z</time>
      </trkpt>
      <trkpt lat="47.84188" lon="7.11374">
        <ele>857</ele>
        <time>2020-07-03T23:11:11Z</time>
      </trkpt>
      <trkpt lat="47.84176" lon="7.11379">
        <ele>855</ele>
        <time>2020-07-03T23:11:14Z</time>
      </trkpt>
      <trkpt lat="47.84157" lon="7.11383">
        <ele>852</ele>
        <time>2020-07-03T23:11:19Z</time>
      </trkpt>
      <trkpt lat="47.84139" lon="7.1139">
        <ele>851</ele>
        <time>2020-07-03T23:11:23Z</time>
      </trkpt>
      <trkpt lat="47.84087" lon="7.11415">
        <ele>850</ele>
        <time>2020-07-03T23:11:36Z</time>
      </trkpt>
      <trkpt lat="47.84064" lon="7.11408">
        <ele>854</ele>
        <time>2020-07-03T23:11:41Z</time>
      </trkpt>
      <trkpt lat="47.8404" lon="7.1139">
        <ele>857</ele>
        <time>2020-07-03T23:11:48Z</time>
      </trkpt>
      <trkpt lat="47.84033" lon="7.11382">
        <ele>858</ele>
        <time>2020-07-03T23:11:50Z</time>
      </trkpt>
      <trkpt lat="47.84023" lon="7.1136">
        <ele>856</ele>
        <time>2020-07-03T23:11:54Z</time>
      </trkpt>
      <trkpt lat="47.83981" lon="7.11245">
        <ele>842</ele>
        <time>2020-07-03T23:12:14Z</time>
      </trkpt>
      <trkpt lat="47.83975" lon="7.11218">
        <ele>838</ele>
        <time>2020-07-03T23:12:19Z</time>
      </trkpt>
      <trkpt lat="47.83969" lon="7.11179">
        <ele>831</ele>
        <time>2020-07-03T23:12:25Z</time>
      </trkpt>
      <trkpt lat="47.83948" lon="7.11121">
        <ele>829</ele>
        <time>2020-07-03T23:12:35Z</time>
      </trkpt>
      <trkpt lat="47.83932" lon="7.11063">
        <ele>824</ele>
        <time>2020-07-03T23:12:45Z</time>
      </trkpt>
      <trkpt lat="47.83913" lon="7.11016">
        <ele>817</ele>
        <time>2020-07-03T23:12:54Z</time>
      </trkpt>
      <trkpt lat="47.83901" lon="7.11002">
        <ele>814</ele>
        <time>2020-07-03T23:12:57Z</time>
      </trkpt>
      <trkpt lat="47.83876" lon="7.10985">
        <ele>811</ele>
        <time>2020-07-03T23:13:04Z</time>
      </trkpt>
      <trkpt lat="47.83854" lon="7.10954">
        <ele>805</ele>
        <time>2020-07-03T23:13:11Z</time>
      </trkpt>
      <trkpt lat="47.83813" lon="7.10903">
        <ele>792</ele>
        <time>2020-07-03T23:13:23Z</time>
      </trkpt>
      <trkpt lat="47.83802" lon="7.10877">
        <ele>785</ele>
        <time>2020-07-03T23:13:28Z</time>
      </trkpt>
      <trkpt lat="47.83785" lon="7.10851">
        <ele>781</ele>
        <time>2020-07-03T23:13:34Z</time>
      </trkpt>
      <trkpt lat="47.8377" lon="7.10849">
        <ele>782</ele>
        <time>2020-07-03T23:13:37Z</time>
      </trkpt>
      <trkpt lat="47.83759" lon="7.10856">
        <ele>784</ele>
        <time>2020-07-03T23:13:40Z</time>
      </trkpt>
      <trkpt lat="47.83756" lon="7.10869">
        <ele>784</ele>
        <time>2020-07-03T23:13:42Z</time>
      </trkpt>
      <trkpt lat="47.83753" lon="7.109">
        <ele>785</ele>
        <time>2020-07-03T23:13:47Z</time>
      </trkpt>
      <trkpt lat="47.83746" lon="7.10927">
        <ele>784</ele>
        <time>2020-07-03T23:13:52Z</time>
      </trkpt>
      <trkpt lat="47.83734" lon="7.10968">
        <ele>780</ele>
        <time>2020-07-03T23:13:59Z</time>
      </trkpt>
      <trkpt lat="47.8372" lon="7.11003">
        <ele>775</ele>
        <time>2020-07-03T23:14:05Z</time>
      </trkpt>
      <trkpt lat="47.83719" lon="7.11057">
        <ele>780</ele>
        <time>2020-07-03T23:14:14Z</time>
      </trkpt>
      <trkpt lat="47.83713" lon="7.11071">
        <ele>779</ele>
        <time>2020-07-03T23:14:16Z</time>
      </trkpt>
      <trkpt lat="47.83697" lon="7.11086">
        <ele>773</ele>
        <time>2020-07-03T23:14:21Z</time>
      </trkpt>
      <trkpt lat="47.83668" lon="7.11104">
        <ele>765</ele>
        <time>2020-07-03T23:14:28Z</time>
      </trkpt>
      <trkpt lat="47.83645" lon="7.11122">
        <ele>761</ele>
        <time>2020-07-03T23:14:34Z</time>
      </trkpt>
      <trkpt lat="47.83621" lon="7.11133">
        <ele>755</ele>
        <time>2020-07-03T23:14:40Z</time>
      </trkpt>
      <trkpt lat="47.8359" lon="7.11141">
        <ele>746</ele>
        <time>2020-07-03T23:14:47Z</time>
      </trkpt>
      <trkpt lat="47.83581" lon="7.11148">
        <ele>745</ele>
        <time>2020-07-03T23:14:50Z</time>
      </trkpt>
      <trkpt lat="47.8356" lon="7.11178">
        <ele>748</ele>
        <time>2020-07-03T23:14:56Z</time>
      </trkpt>
      <trkpt lat="47.83545" lon="7.1121">
        <ele>754</ele>
        <time>2020-07-03T23:15:03Z</time>
      </trkpt>
      <trkpt lat="47.83527" lon="7.11244">
        <ele>759</ele>
        <time>2020-07-03T23:15:09Z</time>
      </trkpt>
      <trkpt lat="47.8351" lon="7.11266">
        <ele>759</ele>
        <time>2020-07-03T23:15:15Z</time>
      </trkpt>
      <trkpt lat="47.83497" lon="7.11279">
        <ele>757</ele>
        <time>2020-07-03T23:15:18Z</time>
      </trkpt>
      <trkpt lat="47.83459" lon="7.11311">
        <ele>751</ele>
        <time>2020-07-03T23:15:28Z</time>
      </trkpt>
      <trkpt lat="47.83457" lon="7.1132">
        <ele>752</ele>
        <time>2020-07-03T23:15:30Z</time>
      </trkpt>
      <trkpt lat="47.83458" lon="7.11326">
        <ele>754</ele>
        <time>2020-07-03T23:15:31Z</time>
      </trkpt>
      <trkpt lat="47.83462" lon="7.11332">
        <ele>756</ele>
        <time>2020-07-03T23:15:32Z</time>
      </trkpt>
      <trkpt lat="47.8348" lon="7.11344">
        <ele>761</ele>
        <time>2020-07-03T23:15:37Z</time>
      </trkpt>
      <trkpt lat="47.83502" lon="7.11378">
        <ele>766</ele>
        <time>2020-07-03T23:15:44Z</time>
      </trkpt>
      <trkpt lat="47.8352" lon="7.11414">
        <ele>772</ele>
        <time>2020-07-03T23:15:51Z</time>
      </trkpt>
      <trkpt lat="47.83543" lon="7.11485">
        <ele>777</ele>
        <time>2020-07-03T23:16:04Z</time>
      </trkpt>
      <trkpt lat="47.83563" lon="7.11565">
        <ele>777</ele>
        <time>2020-07-03T23:16:17Z</time>
      </trkpt>
      <trkpt lat="47.83581" lon="7.11654">
        <ele>782</ele>
        <time>2020-07-03T23:16:32Z</time>
      </trkpt>
      <trkpt lat="47.83588" lon="7.11677">
        <ele>782</ele>
        <time>2020-07-03T23:16:36Z</time>
      </trkpt>
      <trkpt lat="47.83596" lon="7.11696">
        <ele>780</ele>
        <time>2020-07-03T23:16:39Z</time>
      </trkpt>
      <trkpt lat="47.83575" lon="7.11706">
        <ele>774</ele>
        <time>2020-07-03T23:16:44Z</time>
      </trkpt>
      <trkpt lat="47.83559" lon="7.11718">
        <ele>768</ele>
        <time>2020-07-03T23:16:48Z</time>
      </trkpt>
      <trkpt lat="47.83442" lon="7.11845">
        <ele>746</ele>
        <time>2020-07-03T23:17:22Z</time>
      </trkpt>
      <trkpt lat="47.83403" lon="7.11901">
        <ele>742</ele>
        <time>2020-07-03T23:17:35Z</time>
      </trkpt>
      <trkpt lat="47.83386" lon="7.1195">
        <ele>738</ele>
        <time>2020-07-03T23:17:43Z</time>
      </trkpt>
      <trkpt lat="47.83352" lon="7.11994">
        <ele>731</ele>
        <time>2020-07-03T23:17:54Z</time>
      </trkpt>
      <trkpt lat="47.83327" lon="7.12004">
        <ele>726</ele>
        <time>2020-07-03T23:18:00Z</time>
      </trkpt>
      <trkpt lat="47.83306" lon="7.11984">
        <ele>724</ele>
        <time>2020-07-03T23:18:06Z</time>
      </trkpt>
      <trkpt lat="47.8328" lon="7.11956">
        <ele>721</ele>
        <time>2020-07-03T23:18:13Z</time>
      </trkpt>
      <trkpt lat="47.83247" lon="7.11941">
        <ele>718</ele>
        <time>2020-07-03T23:18:21Z</time>
      </trkpt>
      <trkpt lat="47.8321" lon="7.11932">
        <ele>714</ele>
        <time>2020-07-03T23:18:30Z</time>
      </trkpt>
      <trkpt lat="47.83165" lon="7.11934">
        <ele>709</ele>
        <time>2020-07-03T23:18:41Z</time>
      </trkpt>
      <trkpt lat="47.83102" lon="7.11929">
        <ele>711</ele>
        <time>2020-07-03T23:18:55Z</time>
      </trkpt>
      <trkpt lat="47.83077" lon="7.11923">
        <ele>713</ele>
        <time>2020-07-03T23:19:01Z</time>
      </trkpt>
      <trkpt lat="47.83053" lon="7.11891">
        <ele>710</ele>
        <time>2020-07-03T23:19:09Z</time>
      </trkpt>
      <trkpt lat="47.8303" lon="7.11853">
        <ele>705</ele>
        <time>2020-07-03T23:19:17Z</time>
      </trkpt>
      <trkpt lat="47.83007" lon="7.11804">
        <ele>696</ele>
        <time>2020-07-03T23:19:26Z</time>
      </trkpt>
      <trkpt lat="47.82984" lon="7.11773">
        <ele>685</ele>
        <time>2020-07-03T23:19:34Z</time>
      </trkpt>
      <trkpt lat="47.82964" lon="7.11767">
        <ele>682</ele>
        <time>2020-07-03T23:19:38Z</time>
      </trkpt>
      <trkpt lat="47.82944" lon="7.11775">
        <ele>685</ele>
        <time>2020-07-03T23:19:43Z</time>
      </trkpt>
      <trkpt lat="47.82886" lon="7.11802">
        <ele>690</ele>
        <time>2020-07-03T23:19:57Z</time>
      </trkpt>
      <trkpt lat="47.82856" lon="7.11803">
        <ele>686</ele>
        <time>2020-07-03T23:20:04Z</time>
      </trkpt>
      <trkpt lat="47.82831" lon="7.11795">
        <ele>680</ele>
        <time>2020-07-03T23:20:10Z</time>
      </trkpt>
      <trkpt lat="47.82809" lon="7.11766">
        <ele>670</ele>
        <time>2020-07-03T23:20:17Z</time>
      </trkpt>
      <trkpt lat="47.82794" lon="7.11728">
        <ele>659</ele>
        <time>2020-07-03T23:20:24Z</time>
      </trkpt>
      <trkpt lat="47.82777" lon="7.11695">
        <ele>651</ele>
        <time>2020-07-03T23:20:31Z</time>
      </trkpt>
      <trkpt lat="47.8276" lon="7.11679">
        <ele>649</ele>
        <time>2020-07-03T23:20:35Z</time>
      </trkpt>
      <trkpt lat="47.82739" lon="7.11677">
        <ele>647</ele>
        <time>2020-07-03T23:20:40Z</time>
      </trkpt>
      <trkpt lat="47.82724" lon="7.11682">
        <ele>643</ele>
        <time>2020-07-03T23:20:44Z</time>
      </trkpt>
      <trkpt lat="47.82707" lon="7.11698">
        <ele>642</ele>
        <time>2020-07-03T23:20:48Z</time>
      </trkpt>
      <trkpt lat="47.82686" lon="7.11723">
        <ele>642</ele>
        <time>2020-07-03T23:20:55Z</time>
      </trkpt>
      <trkpt lat="47.82661" lon="7.11757">
        <ele>641</ele>
        <time>2020-07-03T23:21:03Z</time>
      </trkpt>
      <trkpt lat="47.82636" lon="7.11786">
        <ele>634</ele>
        <time>2020-07-03T23:21:10Z</time>
      </trkpt>
      <trkpt lat="47.82623" lon="7.11802">
        <ele>631</ele>
        <time>2020-07-03T23:21:14Z</time>
      </trkpt>
      <trkpt lat="47.82591" lon="7.11824">
        <ele>621</ele>
        <time>2020-07-03T23:21:22Z</time>
      </trkpt>
      <trkpt lat="47.82578" lon="7.11844">
        <ele>617</ele>
        <time>2020-07-03T23:21:27Z</time>
      </trkpt>
      <trkpt lat="47.82574" lon="7.11852">
        <ele>616</ele>
        <time>2020-07-03T23:21:28Z</time>
      </trkpt>
      <trkpt lat="47.82574" lon="7.11861">
        <ele>616</ele>
        <time>2020-07-03T23:21:30Z</time>
      </trkpt>
      <trkpt lat="47.82576" lon="7.11872">
        <ele>616</ele>
        <time>2020-07-03T23:21:31Z</time>
      </trkpt>
      <trkpt lat="47.82586" lon="7.11909">
        <ele>622</ele>
        <time>2020-07-03T23:21:38Z</time>
      </trkpt>
      <trkpt lat="47.82589" lon="7.11934">
        <ele>626</ele>
        <time>2020-07-03T23:21:42Z</time>
      </trkpt>
      <trkpt lat="47.8259" lon="7.11962">
        <ele>631</ele>
        <time>2020-07-03T23:21:46Z</time>
      </trkpt>
      <trkpt lat="47.82588" lon="7.11979">
        <ele>632</ele>
        <time>2020-07-03T23:21:49Z</time>
      </trkpt>
      <trkpt lat="47.82583" lon="7.11994">
        <ele>631</ele>
        <time>2020-07-03T23:21:51Z</time>
      </trkpt>
      <trkpt lat="47.8257" lon="7.12019">
        <ele>632</ele>
        <time>2020-07-03T23:21:56Z</time>
      </trkpt>
      <trkpt lat="47.82563" lon="7.12028">
        <ele>632</ele>
        <time>2020-07-03T23:21:58Z</time>
      </trkpt>
      <trkpt lat="47.82545" lon="7.12037">
        <ele>628</ele>
        <time>2020-07-03T23:22:03Z</time>
      </trkpt>
      <trkpt lat="47.8249" lon="7.12072">
        <ele>621</ele>
        <time>2020-07-03T23:22:17Z</time>
      </trkpt>
      <trkpt lat="47.82461" lon="7.1208">
        <ele>620</ele>
        <time>2020-07-03T23:22:24Z</time>
      </trkpt>
      <trkpt lat="47.82455" lon="7.1208">
        <ele>619</ele>
        <time>2020-07-03T23:22:25Z</time>
      </trkpt>
      <trkpt lat="47.82391" lon="7.12058">
        <ele>606</ele>
        <time>2020-07-03T23:22:40Z</time>
      </trkpt>
      <trkpt lat="47.82382" lon="7.12052">
        <ele>603</ele>
        <time>2020-07-03T23:22:43Z</time>
      </trkpt>
      <trkpt lat="47.82355" lon="7.12019">
        <ele>590</ele>
        <time>2020-07-03T23:22:51Z</time>
      </trkpt>
      <trkpt lat="47.82348" lon="7.12016">
        <ele>588</ele>
        <time>2020-07-03T23:22:53Z</time>
      </trkpt>
      <trkpt lat="47.82337" lon="7.12018">
        <ele>589</ele>
        <time>2020-07-03T23:22:55Z</time>
      </trkpt>
      <trkpt lat="47.82319" lon="7.12026">
        <ele>589</ele>
        <time>2020-07-03T23:23:00Z</time>
      </trkpt>
      <trkpt lat="47.82298" lon="7.1204">
        <ele>589</ele>
        <time>2020-07-03T23:23:05Z</time>
      </trkpt>
      <trkpt lat="47.82273" lon="7.1206">
        <ele>589</ele>
        <time>2020-07-03T23:23:12Z</time>
      </trkpt>
      <trkpt lat="47.82257" lon="7.12078">
        <ele>589</ele>
        <time>2020-07-03T23:23:16Z</time>
      </trkpt>
      <trkpt lat="47.82205" lon="7.1212">
        <ele>581</ele>
        <time>2020-07-03T23:23:30Z</time>
      </trkpt>
      <trkpt lat="47.82199" lon="7.12108">
        <ele>581</ele>
        <time>2020-07-03T23:23:32Z</time>
      </trkpt>
      <trkpt lat="47.82178" lon="7.12083">
        <ele>580</ele>
        <time>2020-07-03T23:23:39Z</time>
      </trkpt>
      <trkpt lat="47.82177" lon="7.12069">
        <ele>579</ele>
        <time>2020-07-03T23:23:41Z</time>
      </trkpt>
      <trkpt lat="47.82171" lon="7.12055">
        <ele>579</ele>
        <time>2020-07-03T23:23:44Z</time>
      </trkpt>
      <trkpt lat="47.82157" lon="7.12035">
        <ele>580</ele>
        <time>2020-07-03T23:23:48Z</time>
      </trkpt>
      <trkpt lat="47.82145" lon="7.12009">
        <ele>584</ele>
        <time>2020-07-03T23:23:53Z</time>
      </trkpt>
      <trkpt lat="47.82129" lon="7.1197">
        <ele>585</ele>
        <time>2020-07-03T23:24:00Z</time>
      </trkpt>
      <trkpt lat="47.82113" lon="7.11923">
        <ele>583</ele>
        <time>2020-07-03T23:24:08Z</time>
      </trkpt>
      <trkpt lat="47.8209" lon="7.11868">
        <ele>583</ele>
        <time>2020-07-03T23:24:19Z</time>
      </trkpt>
      <trkpt lat="47.82068" lon="7.11826">
        <ele>587</ele>
        <time>2020-07-03T23:24:27Z</time>
      </trkpt>
      <trkpt lat="47.82054" lon="7.11782">
        <ele>588</ele>
        <time>2020-07-03T23:24:35Z</time>
      </trkpt>
      <trkpt lat="47.82031" lon="7.11731">
        <ele>592</ele>
        <time>2020-07-03T23:24:44Z</time>
      </trkpt>
      <trkpt lat="47.82004" lon="7.11658">
        <ele>594</ele>
        <time>2020-07-03T23:24:57Z</time>
      </trkpt>
      <trkpt lat="47.81986" lon="7.11595">
        <ele>580</ele>
        <time>2020-07-03T23:25:08Z</time>
      </trkpt>
      <trkpt lat="47.81966" lon="7.11551">
        <ele>567</ele>
        <time>2020-07-03T23:25:16Z</time>
      </trkpt>
      <trkpt lat="47.8195" lon="7.11543">
        <ele>565</ele>
        <time>2020-07-03T23:25:20Z</time>
      </trkpt>
      <trkpt lat="47.81913" lon="7.11549">
        <ele>569</ele>
        <time>2020-07-03T23:25:29Z</time>
      </trkpt>
      <trkpt lat="47.81863" lon="7.11561">
        <ele>569</ele>
        <time>2020-07-03T23:25:41Z</time>
      </trkpt>
      <trkpt lat="47.81818" lon="7.11576">
        <ele>572</ele>
        <time>2020-07-03T23:25:52Z</time>
      </trkpt>
      <trkpt lat="47.81761" lon="7.11582">
        <ele>576</ele>
        <time>2020-07-03T23:26:05Z</time>
      </trkpt>
      <trkpt lat="47.81732" lon="7.1158">
        <ele>577</ele>
        <time>2020-07-03T23:26:12Z</time>
      </trkpt>
      <trkpt lat="47.81699" lon="7.11562">
        <ele>575</ele>
        <time>2020-07-03T23:26:20Z</time>
      </trkpt>
      <trkpt lat="47.81678" lon="7.1153">
        <ele>571</ele>
        <time>2020-07-03T23:26:27Z</time>
      </trkpt>
      <trkpt lat="47.81663" lon="7.11486">
        <ele>565</ele>
        <time>2020-07-03T23:26:35Z</time>
      </trkpt>
      <trkpt lat="47.81654" lon="7.11442">
        <ele>558</ele>
        <time>2020-07-03T23:26:42Z</time>
      </trkpt>
      <trkpt lat="47.81637" lon="7.11417">
        <ele>557</ele>
        <time>2020-07-03T23:26:47Z</time>
      </trkpt>
      <trkpt lat="47.81606" lon="7.114">
        <ele>559</ele>
        <time>2020-07-03T23:26:55Z</time>
      </trkpt>
      <trkpt lat="47.81564" lon="7.11368">
        <ele>557</ele>
        <time>2020-07-03T23:27:06Z</time>
      </trkpt>
      <trkpt lat="47.8154" lon="7.11326">
        <ele>549</ele>
        <time>2020-07-03T23:27:15Z</time>
      </trkpt>
      <trkpt lat="47.81488" lon="7.11209">
        <ele>530</ele>
        <time>2020-07-03T23:27:37Z</time>
      </trkpt>
      <trkpt lat="47.81449" lon="7.11108">
        <ele>515</ele>
        <time>2020-07-03T23:27:55Z</time>
      </trkpt>
      <trkpt lat="47.81434" lon="7.10981">
        <ele>497</ele>
        <time>2020-07-03T23:28:15Z</time>
      </trkpt>
      <trkpt lat="47.81428" lon="7.10961">
        <ele>494</ele>
        <time>2020-07-03T23:28:19Z</time>
      </trkpt>
      <trkpt lat="47.81419" lon="7.1095">
        <ele>494</ele>
        <time>2020-07-03T23:28:21Z</time>
      </trkpt>
      <trkpt lat="47.81404" lon="7.10944">
        <ele>488</ele>
        <time>2020-07-03T23:28:25Z</time>
      </trkpt>
      <trkpt lat="47.81398" lon="7.1096">
        <ele>489</ele>
        <time>2020-07-03T23:28:28Z</time>
      </trkpt>
      <trkpt lat="47.81404" lon="7.10944">
        <ele>488</ele>
        <time>2020-07-03T23:28:31Z</time>
      </trkpt>
      <trkpt lat="47.8139" lon="7.10953">
        <ele>484</ele>
        <time>2020-07-03T23:28:34Z</time>
      </trkpt>
      <trkpt lat="47.81374" lon="7.1097">
        <ele>481</ele>
        <time>2020-07-03T23:28:39Z</time>
      </trkpt>
      <trkpt lat="47.81369" lon="7.10972">
        <ele>479</ele>
        <time>2020-07-03T23:28:40Z</time>
      </trkpt>
      <trkpt lat="47.81364" lon="7.10985">
        <ele>481</ele>
        <time>2020-07-03T23:28:43Z</time>
      </trkpt>
      <trkpt lat="47.81359" lon="7.11007">
        <ele>483</ele>
        <time>2020-07-03T23:28:46Z</time>
      </trkpt>
      <trkpt lat="47.81357" lon="7.11034">
        <ele>485</ele>
        <time>2020-07-03T23:28:50Z</time>
      </trkpt>
      <trkpt lat="47.81365" lon="7.11094">
        <ele>495</ele>
        <time>2020-07-03T23:29:00Z</time>
      </trkpt>
      <trkpt lat="47.81364" lon="7.11115">
        <ele>496</ele>
        <time>2020-07-03T23:29:03Z</time>
      </trkpt>
      <trkpt lat="47.81349" lon="7.11204">
        <ele>494</ele>
        <time>2020-07-03T23:29:18Z</time>
      </trkpt>
      <trkpt lat="47.81346" lon="7.11227">
        <ele>494</ele>
        <time>2020-07-03T23:29:21Z</time>
      </trkpt>
      <trkpt lat="47.81348" lon="7.11244">
        <ele>496</ele>
        <time>2020-07-03T23:29:24Z</time>
      </trkpt>
      <trkpt lat="47.81344" lon="7.11259">
        <ele>497</ele>
        <time>2020-07-03T23:29:27Z</time>
      </trkpt>
      <trkpt lat="47.81333" lon="7.11274">
        <ele>494</ele>
        <time>2020-07-03T23:29:30Z</time>
      </trkpt>
      <trkpt lat="47.81319" lon="7.11287">
        <ele>490</ele>
        <time>2020-07-03T23:29:34Z</time>
      </trkpt>
      <trkpt lat="47.81297" lon="7.11308">
        <ele>484</ele>
        <time>2020-07-03T23:29:40Z</time>
      </trkpt>
      <trkpt lat="47.81277" lon="7.1132">
        <ele>477</ele>
        <time>2020-07-03T23:29:45Z</time>
      </trkpt>
      <trkpt lat="47.81263" lon="7.11335">
        <ele>473</ele>
        <time>2020-07-03T23:29:49Z</time>
      </trkpt>
      <trkpt lat="47.81252" lon="7.11358">
        <ele>471</ele>
        <time>2020-07-03T23:29:54Z</time>
      </trkpt>
      <trkpt lat="47.81243" lon="7.11389">
        <ele>469</ele>
        <time>2020-07-03T23:29:59Z</time>
      </trkpt>
      <trkpt lat="47.81236" lon="7.11429">
        <ele>469</ele>
        <time>2020-07-03T23:30:05Z</time>
      </trkpt>
      <trkpt lat="47.81232" lon="7.11401">
        <ele>463</ele>
        <time>2020-07-03T23:30:10Z</time>
      </trkpt>
      <trkpt lat="47.81235" lon="7.11348">
        <ele>459</ele>
        <time>2020-07-03T23:30:18Z</time>
      </trkpt>
      <trkpt lat="47.81234" lon="7.11337">
        <ele>457</ele>
        <time>2020-07-03T23:30:20Z</time>
      </trkpt>
      <trkpt lat="47.81239" lon="7.11327">
        <ele>458</ele>
        <time>2020-07-03T23:30:22Z</time>
      </trkpt>
      <trkpt lat="47.81238" lon="7.11318">
        <ele>456</ele>
        <time>2020-07-03T23:30:23Z</time>
      </trkpt>
      <trkpt lat="47.81246" lon="7.11304">
        <ele>457</ele>
        <time>2020-07-03T23:30:26Z</time>
      </trkpt>
      <trkpt lat="47.81248" lon="7.11294">
        <ele>456</ele>
        <time>2020-07-03T23:30:28Z</time>
      </trkpt>
      <trkpt lat="47.81256" lon="7.11285">
        <ele>459</ele>
        <time>2020-07-03T23:30:30Z</time>
      </trkpt>
      <trkpt lat="47.81258" lon="7.11279">
        <ele>458</ele>
        <time>2020-07-03T23:30:31Z</time>
      </trkpt>
      <trkpt lat="47.81239" lon="7.11293">
        <ele>451</ele>
        <time>2020-07-03T23:30:36Z</time>
      </trkpt>
      <trkpt lat="47.8123" lon="7.11314">
        <ele>450</ele>
        <time>2020-07-03T23:30:40Z</time>
      </trkpt>
      <trkpt lat="47.81222" lon="7.1135">
        <ele>451</ele>
        <time>2020-07-03T23:30:46Z</time>
      </trkpt>
      <trkpt lat="47.8122" lon="7.11308">
        <ele>443</ele>
        <time>2020-07-03T23:30:53Z</time>
      </trkpt>
      <trkpt lat="47.81223" lon="7.11293">
        <ele>442</ele>
        <time>2020-07-03T23:30:55Z</time>
      </trkpt>
      <trkpt lat="47.81222" lon="7.11289">
        <ele>441</ele>
        <time>2020-07-03T23:30:56Z</time>
      </trkpt>
      <trkpt lat="47.81218" lon="7.11289">
        <ele>438</ele>
        <time>2020-07-03T23:30:57Z</time>
      </trkpt>
      <trkpt lat="47.81205" lon="7.11306">
        <ele>434</ele>
        <time>2020-07-03T23:31:01Z</time>
      </trkpt>
      <trkpt lat="47.81186" lon="7.1134">
        <ele>427</ele>
        <time>2020-07-03T23:31:08Z</time>
      </trkpt>
      <trkpt lat="47.81182" lon="7.11324">
        <ele>423</ele>
        <time>2020-07-03T23:31:10Z</time>
      </trkpt>
      <trkpt lat="47.81181" lon="7.11274">
        <ele>415</ele>
        <time>2020-07-03T23:31:18Z</time>
      </trkpt>
      <trkpt lat="47.8118" lon="7.11268">
        <ele>414</ele>
        <time>2020-07-03T23:31:19Z</time>
      </trkpt>
      <trkpt lat="47.81174" lon="7.11292">
        <ele>414</ele>
        <time>2020-07-03T23:31:23Z</time>
      </trkpt>
      <trkpt lat="47.81168" lon="7.11327">
        <ele>415</ele>
        <time>2020-07-03T23:31:29Z</time>
      </trkpt>
      <trkpt lat="47.81166" lon="7.11379">
        <ele>416</ele>
        <time>2020-07-03T23:31:37Z</time>
      </trkpt>
      <trkpt lat="47.81169" lon="7.11439">
        <ele>421</ele>
        <time>2020-07-03T23:31:46Z</time>
      </trkpt>
      <trkpt lat="47.81169" lon="7.11462">
        <ele>422</ele>
        <time>2020-07-03T23:31:50Z</time>
      </trkpt>
      <trkpt lat="47.81166" lon="7.11491">
        <ele>421</ele>
        <time>2020-07-03T23:31:55Z</time>
      </trkpt>
      <trkpt lat="47.81145" lon="7.11571">
        <ele>408</ele>
        <time>2020-07-03T23:32:08Z</time>
      </trkpt>
      <trkpt lat="47.81131" lon="7.11622">
        <ele>397</ele>
        <time>2020-07-03T23:32:17Z</time>
      </trkpt>
      <trkpt lat="47.81127" lon="7.11627">
        <ele>395</ele>
        <time>2020-07-03T23:32:18Z</time>
      </trkpt>
      <trkpt lat="47.81137" lon="7.11697">
        <ele>398</ele>
        <time>2020-07-03T23:32:29Z</time>
      </trkpt>
      <trkpt lat="47.81145" lon="7.11809">
        <ele>396</ele>
        <time>2020-07-03T23:32:47Z</time>
      </trkpt>
      <trkpt lat="47.81145" lon="7.1184">
        <ele>395</ele>
        <time>2020-07-03T23:32:52Z</time>
      </trkpt>
      <trkpt lat="47.81117" lon="7.11836">
        <ele>380</ele>
        <time>2020-07-03T23:32:58Z</time>
      </trkpt>
      <trkpt lat="47.8111" lon="7.11832">
        <ele>377</ele>
        <time>2020-07-03T23:33:00Z</time>
      </trkpt>
      <trkpt lat="47.81092" lon="7.11799">
        <ele>365</ele>
        <time>2020-07-03T23:33:07Z</time>
      </trkpt>
      <trkpt lat="47.81079" lon="7.1178">
        <ele>356</ele>
        <time>2020-07-03T23:33:11Z</time>
      </trkpt>
      <trkpt lat="47.81059" lon="7.11782">
        <ele>350</ele>
        <time>2020-07-03T23:33:16Z</time>
      </trkpt>
      <trkpt lat="47.81053" lon="7.11779">
        <ele>348</ele>
        <time>2020-07-03T23:33:17Z</time>
      </trkpt>
      <trkpt lat="47.81044" lon="7.11794">
        <ele>346</ele>
        <time>2020-07-03T23:33:20Z</time>
      </trkpt>
      <trkpt lat="47.81034" lon="7.11817">
        <ele>344</ele>
        <time>2020-07-03T23:33:25Z</time>
      </trkpt>
      <trkpt lat="47.81027" lon="7.11801">
        <ele>340</ele>
        <time>2020-07-03T23:33:28Z</time>
      </trkpt>
      <trkpt lat="47.81023" lon="7.11808">
        <ele>339</ele>
        <time>2020-07-03T23:33:29Z</time>
      </trkpt>
      <trkpt lat="47.81013" lon="7.11886">
        <ele>340</ele>
        <time>2020-07-03T23:33:42Z</time>
      </trkpt>
      <trkpt lat="47.81012" lon="7.11974">
        <ele>341</ele>
        <time>2020-07-03T23:33:55Z</time>
      </trkpt>
      <trkpt lat="47.8101" lon="7.12005">
        <ele>340</ele>
        <time>2020-07-03T23:34:00Z</time>
      </trkpt>
      <trkpt lat="47.80975" lon="7.12157">
        <ele>331</ele>
        <time>2020-07-03T23:34:25Z</time>
      </trkpt>
      <trkpt lat="47.80968" lon="7.12211">
        <ele>333</ele>
        <time>2020-07-03T23:34:34Z</time>
      </trkpt>
      <trkpt lat="47.80954" lon="7.12289">
        <ele>337</ele>
        <time>2020-07-03T23:34:47Z</time>
      </trkpt>
      <trkpt lat="47.80938" lon="7.12372">
        <ele>340</ele>
        <time>2020-07-03T23:35:00Z</time>
      </trkpt>
      <trkpt lat="47.80938" lon="7.12401">
        <ele>344</ele>
        <time>2020-07-03T23:35:05Z</time>
      </trkpt>
      <trkpt lat="47.80918" lon="7.12437">
        <ele>342</ele>
        <time>2020-07-03T23:35:12Z</time>
      </trkpt>
      <trkpt lat="47.80856" lon="7.12534">
        <ele>339</ele>
        <time>2020-07-03T23:35:33Z</time>
      </trkpt>
      <trkpt lat="47.80826" lon="7.12575">
        <ele>332</ele>
        <time>2020-07-03T23:35:43Z</time>
      </trkpt>
      <trkpt lat="47.80801" lon="7.12638">
        <ele>334</ele>
        <time>2020-07-03T23:35:54Z</time>
      </trkpt>
      <trkpt lat="47.8077" lon="7.12711">
        <ele>332</ele>
        <time>2020-07-03T23:36:08Z</time>
      </trkpt>
      <trkpt lat="47.80763" lon="7.12723">
        <ele>331</ele>
        <time>2020-07-03T23:36:10Z</time>
      </trkpt>
      <trkpt lat="47.8076" lon="7.12739">
        <ele>331</ele>
        <time>2020-07-03T23:36:13Z</time>
      </trkpt>
      <trkpt lat="47.80752" lon="7.12797">
        <ele>330</ele>
        <time>2020-07-03T23:36:22Z</time>
      </trkpt>
      <trkpt lat="47.80747" lon="7.12803">
        <ele>329</ele>
        <time>2020-07-03T23:36:24Z</time>
      </trkpt>
      <trkpt lat="47.80744" lon="7.12833">
        <ele>330</ele>
        <time>2020-07-03T23:36:28Z</time>
      </trkpt>
      <trkpt lat="47.80742" lon="7.12849">
        <ele>330</ele>
        <time>2020-07-03T23:36:31Z</time>
      </trkpt>
      <trkpt lat="47.80739" lon="7.12974">
        <ele>331</ele>
        <time>2020-07-03T23:36:50Z</time>
      </trkpt>
      <trkpt lat="47.8074" lon="7.12987">
        <ele>331</ele>
        <time>2020-07-03T23:36:53Z</time>
      </trkpt>
      <trkpt lat="47.80743" lon="7.13006">
        <ele>330</ele>
        <time>2020-07-03T23:36:56Z</time>
      </trkpt>
      <trkpt lat="47.80745" lon="7.13039">
        <ele>329</ele>
        <time>2020-07-03T23:37:01Z</time>
      </trkpt>
      <trkpt lat="47.80747" lon="7.13079">
        <ele>327</ele>
        <time>2020-07-03T23:37:07Z</time>
      </trkpt>
      <trkpt lat="47.80751" lon="7.13129">
        <ele>327</ele>
        <time>2020-07-03T23:37:15Z</time>
      </trkpt>
      <trkpt lat="47.80753" lon="7.13164">
        <ele>327</ele>
        <time>2020-07-03T23:37:20Z</time>
      </trkpt>
      <trkpt lat="47.80752" lon="7.13187">
        <ele>327</ele>
        <time>2020-07-03T23:37:24Z</time>
      </trkpt>
      <trkpt lat="47.80748" lon="7.13226">
        <ele>327</ele>
        <time>2020-07-03T23:37:30Z</time>
      </trkpt>
      <trkpt lat="47.80729" lon="7.13348">
        <ele>327</ele>
        <time>2020-07-03T23:37:50Z</time>
      </trkpt>
      <trkpt lat="47.80726" lon="7.13381">
        <ele>327</ele>
        <time>2020-07-03T23:37:55Z</time>
      </trkpt>
      <trkpt lat="47.80724" lon="7.13415">
        <ele>326</ele>
        <time>2020-07-03T23:38:00Z</time>
      </trkpt>
      <trkpt lat="47.80721" lon="7.13438">
        <ele>326</ele>
        <time>2020-07-03T23:38:04Z</time>
      </trkpt>
      <trkpt lat="47.80722" lon="7.13469">
        <ele>327</ele>
        <time>2020-07-03T23:38:09Z</time>
      </trkpt>
      <trkpt lat="47.80725" lon="7.135">
        <ele>327</ele>
        <time>2020-07-03T23:38:14Z</time>
      </trkpt>
      <trkpt lat="47.80734" lon="7.13586">
        <ele>325</ele>
        <time>2020-07-03T23:38:28Z</time>
      </trkpt>
      <trkpt lat="47.80722" lon="7.13588">
        <ele>324</ele>
        <time>2020-07-03T23:38:30Z</time>
      </trkpt>
      <trkpt lat="47.80707" lon="7.13597">
        <ele>322</ele>
        <time>2020-07-03T23:38:34Z</time>
      </trkpt>
      <trkpt lat="47.80699" lon="7.13595">
        <ele>321</ele>
        <time>2020-07-03T23:38:36Z</time>
      </trkpt>
      <trkpt lat="47.80653" lon="7.13585">
        <ele>317</ele>
        <time>2020-07-03T23:38:47Z</time>
      </trkpt>
      <trkpt lat="47.80642" lon="7.13581">
        <ele>317</ele>
        <time>2020-07-03T23:38:50Z</time>
      </trkpt>
      <trkpt lat="47.80607" lon="7.13567">
        <ele>318</ele>
        <time>2020-07-03T23:38:58Z</time>
      </trkpt>
      <trkpt lat="47.8054" lon="7.13534">
        <ele>319</ele>
        <time>2020-07-03T23:39:15Z</time>
      </trkpt>
      <trkpt lat="47.80435" lon="7.13483">
        <ele>319</ele>
        <time>2020-07-03T23:39:40Z</time>
      </trkpt>
      <trkpt lat="47.80433" lon="7.13488">
        <ele>319</ele>
        <time>2020-07-03T23:39:41Z</time>
      </trkpt>
      <trkpt lat="47.80429" lon="7.13492">
        <ele>319</ele>
        <time>2020-07-03T23:39:42Z</time>
      </trkpt>
      <trkpt lat="47.80424" lon="7.13492">
        <ele>319</ele>
        <time>2020-07-03T23:39:44Z</time>
      </trkpt>
      <trkpt lat="47.8032" lon="7.13986">
        <ele>317</ele>
        <time>2020-07-03T23:41:05Z</time>
      </trkpt>
      <trkpt lat="47.80295" lon="7.14088">
        <ele>316</ele>
        <time>2020-07-03T23:41:22Z</time>
      </trkpt>
      <trkpt lat="47.80298" lon="7.14092">
        <ele>316</ele>
        <time>2020-07-03T23:41:23Z</time>
      </trkpt>
      <trkpt lat="47.80317" lon="7.14095">
        <ele>316</ele>
        <time>2020-07-03T23:41:27Z</time>
      </trkpt>
      <trkpt lat="47.80353" lon="7.14119">
        <ele>316</ele>
        <time>2020-07-03T23:41:36Z</time>
      </trkpt>
      <trkpt lat="47.80363" lon="7.14163">
        <ele>316</ele>
        <time>2020-07-03T23:41:44Z</time>
      </trkpt>
      <trkpt lat="47.80348" lon="7.14223">
        <ele>316</ele>
        <time>2020-07-03T23:41:54Z</time>
      </trkpt>
      <trkpt lat="47.80323" lon="7.14242">
        <ele>316</ele>
        <time>2020-07-03T23:42:00Z</time>
      </trkpt>
      <trkpt lat="47.80316" lon="7.14258">
        <ele>316</ele>
        <time>2020-07-03T23:42:03Z</time>
      </trkpt>
      <trkpt lat="47.80315" lon="7.1431">
        <ele>315</ele>
        <time>2020-07-03T23:42:11Z</time>
      </trkpt>
      <trkpt lat="47.80306" lon="7.14325">
        <ele>315</ele>
        <time>2020-07-03T23:42:15Z</time>
      </trkpt>
      <trkpt lat="47.8029" lon="7.14342">
        <ele>315</ele>
        <time>2020-07-03T23:42:19Z</time>
      </trkpt>
      <trkpt lat="47.80285" lon="7.14364">
        <ele>315</ele>
        <time>2020-07-03T23:42:23Z</time>
      </trkpt>
      <trkpt lat="47.80285" lon="7.14433">
        <ele>314</ele>
        <time>2020-07-03T23:42:34Z</time>
      </trkpt>
      <trkpt lat="47.80283" lon="7.14477">
        <ele>314</ele>
        <time>2020-07-03T23:42:41Z</time>
      </trkpt>
      <trkpt lat="47.80278" lon="7.14532">
        <ele>314</ele>
        <time>2020-07-03T23:42:49Z</time>
      </trkpt>
      <trkpt lat="47.80268" lon="7.1458">
        <ele>315</ele>
        <time>2020-07-03T23:42:57Z</time>
      </trkpt>
      <trkpt lat="47.80261" lon="7.14596">
        <ele>315</ele>
        <time>2020-07-03T23:43:00Z</time>
      </trkpt>
      <trkpt lat="47.80246" lon="7.14612">
        <ele>315</ele>
        <time>2020-07-03T23:43:04Z</time>
      </trkpt>
      <trkpt lat="47.80236" lon="7.14633">
        <ele>315</ele>
        <time>2020-07-03T23:43:08Z</time>
      </trkpt>
      <trkpt lat="47.80234" lon="7.14653">
        <ele>315</ele>
        <time>2020-07-03T23:43:12Z</time>
      </trkpt>
      <trkpt lat="47.80246" lon="7.14696">
        <ele>315</ele>
        <time>2020-07-03T23:43:19Z</time>
      </trkpt>
      <trkpt lat="47.80253" lon="7.14725">
        <ele>314</ele>
        <time>2020-07-03T23:43:24Z</time>
      </trkpt>
      <trkpt lat="47.80253" lon="7.14741">
        <ele>313</ele>
        <time>2020-07-03T23:43:26Z</time>
      </trkpt>
      <trkpt lat="47.80249" lon="7.14756">
        <ele>313</ele>
        <time>2020-07-03T23:43:29Z</time>
      </trkpt>
      <trkpt lat="47.80233" lon="7.14807">
        <ele>313</ele>
        <time>2020-07-03T23:43:38Z</time>
      </trkpt>
      <trkpt lat="47.80211" lon="7.14885">
        <ele>312</ele>
        <time>2020-07-03T23:43:51Z</time>
      </trkpt>
      <trkpt lat="47.80208" lon="7.14914">
        <ele>312</ele>
        <time>2020-07-03T23:43:56Z</time>
      </trkpt>
      <trkpt lat="47.80187" lon="7.14991">
        <ele>311</ele>
        <time>2020-07-03T23:44:09Z</time>
      </trkpt>
      <trkpt lat="47.80179" lon="7.15013">
        <ele>311</ele>
        <time>2020-07-03T23:44:12Z</time>
      </trkpt>
      <trkpt lat="47.80181" lon="7.15028">
        <ele>311</ele>
        <time>2020-07-03T23:44:15Z</time>
      </trkpt>
      <trkpt lat="47.80179" lon="7.15067">
        <ele>312</ele>
        <time>2020-07-03T23:44:21Z</time>
      </trkpt>
      <trkpt lat="47.8018" lon="7.15095">
        <ele>312</ele>
        <time>2020-07-03T23:44:25Z</time>
      </trkpt>
      <trkpt lat="47.80171" lon="7.15144">
        <ele>310</ele>
        <time>2020-07-03T23:44:33Z</time>
      </trkpt>
      <trkpt lat="47.80183" lon="7.15149">
        <ele>310</ele>
        <time>2020-07-03T23:44:36Z</time>
      </trkpt>
      <trkpt lat="47.80199" lon="7.1516">
        <ele>310</ele>
        <time>2020-07-03T23:44:40Z</time>
      </trkpt>
      <trkpt lat="47.8024" lon="7.1516">
        <ele>309</ele>
        <time>2020-07-03T23:44:50Z</time>
      </trkpt>
      <trkpt lat="47.80254" lon="7.15164">
        <ele>309</ele>
        <time>2020-07-03T23:44:53Z</time>
      </trkpt>
      <trkpt lat="47.80269" lon="7.15177">
        <ele>309</ele>
        <time>2020-07-03T23:44:57Z</time>
      </trkpt>
      <trkpt lat="47.80299" lon="7.15221">
        <ele>308</ele>
        <time>2020-07-03T23:45:07Z</time>
      </trkpt>
      <trkpt lat="47.80301" lon="7.15236">
        <ele>307</ele>
        <time>2020-07-03T23:45:10Z</time>
      </trkpt>
      <trkpt lat="47.8028" lon="7.15395">
        <ele>307</ele>
        <time>2020-07-03T23:45:35Z</time>
      </trkpt>
      <trkpt lat="47.80266" lon="7.15479">
        <ele>308</ele>
        <time>2020-07-03T23:45:49Z</time>
      </trkpt>
      <trkpt lat="47.8026" lon="7.15528">
        <ele>308</ele>
        <time>2020-07-03T23:45:56Z</time>
      </trkpt>
      <trkpt lat="47.80245" lon="7.1557">
        <ele>308</ele>
        <time>2020-07-03T23:46:04Z</time>
      </trkpt>
      <trkpt lat="47.80214" lon="7.15647">
        <ele>307</ele>
        <time>2020-07-03T23:46:18Z</time>
      </trkpt>
      <trkpt lat="47.802" lon="7.15704">
        <ele>307</ele>
        <time>2020-07-03T23:46:27Z</time>
      </trkpt>
      <trkpt lat="47.802" lon="7.1572">
        <ele>307</ele>
        <time>2020-07-03T23:46:30Z</time>
      </trkpt>
      <trkpt lat="47.80208" lon="7.15747">
        <ele>307</ele>
        <time>2020-07-03T23:46:35Z</time>
      </trkpt>
      <trkpt lat="47.80217" lon="7.15765">
        <ele>308</ele>
        <time>2020-07-03T23:46:38Z</time>
      </trkpt>
      <trkpt lat="47.80238" lon="7.15796">
        <ele>308</ele>
        <time>2020-07-03T23:46:45Z</time>
      </trkpt>
      <trkpt lat="47.80256" lon="7.15836">
        <ele>308</ele>
        <time>2020-07-03T23:46:53Z</time>
      </trkpt>
      <trkpt lat="47.80268" lon="7.15869">
        <ele>307</ele>
        <time>2020-07-03T23:46:58Z</time>
      </trkpt>
      <trkpt lat="47.80269" lon="7.15881">
        <ele>307</ele>
        <time>2020-07-03T23:47:00Z</time>
      </trkpt>
      <trkpt lat="47.80225" lon="7.16018">
        <ele>304</ele>
        <time>2020-07-03T23:47:24Z</time>
      </trkpt>
      <trkpt lat="47.80204" lon="7.16097">
        <ele>304</ele>
        <time>2020-07-03T23:47:38Z</time>
      </trkpt>
      <trkpt lat="47.80215" lon="7.16194">
        <ele>303</ele>
        <time>2020-07-03T23:47:53Z</time>
      </trkpt>
      <trkpt lat="47.80203" lon="7.1644">
        <ele>300</ele>
        <time>2020-07-03T23:48:32Z</time>
      </trkpt>
      <trkpt lat="47.80203" lon="7.16472">
        <ele>300</ele>
        <time>2020-07-03T23:48:37Z</time>
      </trkpt>
      <trkpt lat="47.80213" lon="7.16589">
        <ele>300</ele>
        <time>2020-07-03T23:48:55Z</time>
      </trkpt>
      <trkpt lat="47.80219" lon="7.16626">
        <ele>300</ele>
        <time>2020-07-03T23:49:01Z</time>
      </trkpt>
      <trkpt lat="47.80247" lon="7.16756">
        <ele>300</ele>
        <time>2020-07-03T23:49:23Z</time>
      </trkpt>
      <trkpt lat="47.80254" lon="7.16828">
        <ele>299</ele>
        <time>2020-07-03T23:49:34Z</time>
      </trkpt>
      <trkpt lat="47.80225" lon="7.17005">
        <ele>299</ele>
        <time>2020-07-03T23:50:03Z</time>
      </trkpt>
      <trkpt lat="47.80226" lon="7.17058">
        <ele>298</ele>
        <time>2020-07-03T23:50:11Z</time>
      </trkpt>
      <trkpt lat="47.8023" lon="7.17092">
        <ele>298</ele>
        <time>2020-07-03T23:50:16Z</time>
      </trkpt>
      <trkpt lat="47.80234" lon="7.1711">
        <ele>298</ele>
        <time>2020-07-03T23:50:19Z</time>
      </trkpt>
      <trkpt lat="47.80242" lon="7.17125">
        <ele>299</ele>
        <time>2020-07-03T23:50:22Z</time>
      </trkpt>
      <trkpt lat="47.80245" lon="7.17146">
        <ele>299</ele>
        <time>2020-07-03T23:50:26Z</time>
      </trkpt>
      <trkpt lat="47.80249" lon="7.17163">
        <ele>299</ele>
        <time>2020-07-03T23:50:28Z</time>
      </trkpt>
      <trkpt lat="47.80253" lon="7.17203">
        <ele>299</ele>
        <time>2020-07-03T23:50:35Z</time>
      </trkpt>
      <trkpt lat="47.80256" lon="7.17306">
        <ele>299</ele>
        <time>2020-07-03T23:50:51Z</time>
      </trkpt>
      <trkpt lat="47.80252" lon="7.17323">
        <ele>299</ele>
        <time>2020-07-03T23:50:54Z</time>
      </trkpt>
      <trkpt lat="47.80246" lon="7.17331">
        <ele>299</ele>
        <time>2020-07-03T23:50:56Z</time>
      </trkpt>
      <trkpt lat="47.80217" lon="7.17345">
        <ele>300</ele>
        <time>2020-07-03T23:51:03Z</time>
      </trkpt>
      <trkpt lat="47.80209" lon="7.17352">
        <ele>300</ele>
        <time>2020-07-03T23:51:05Z</time>
      </trkpt>
      <trkpt lat="47.80204" lon="7.17372">
        <ele>300</ele>
        <time>2020-07-03T23:51:08Z</time>
      </trkpt>
      <trkpt lat="47.80199" lon="7.1744">
        <ele>299</ele>
        <time>2020-07-03T23:51:19Z</time>
      </trkpt>
      <trkpt lat="47.802" lon="7.17455">
        <ele>299</ele>
        <time>2020-07-03T23:51:21Z</time>
      </trkpt>
      <trkpt lat="47.80205" lon="7.17472">
        <ele>299</ele>
        <time>2020-07-03T23:51:24Z</time>
      </trkpt>
      <trkpt lat="47.80223" lon="7.17514">
        <ele>298</ele>
        <time>2020-07-03T23:51:32Z</time>
      </trkpt>
      <trkpt lat="47.80239" lon="7.17542">
        <ele>298</ele>
        <time>2020-07-03T23:51:38Z</time>
      </trkpt>
      <trkpt lat="47.80256" lon="7.17565">
        <ele>298</ele>
        <time>2020-07-03T23:51:43Z</time>
      </trkpt>
      <trkpt lat="47.80279" lon="7.1759">
        <ele>298</ele>
        <time>2020-07-03T23:51:50Z</time>
      </trkpt>
      <trkpt lat="47.80281" lon="7.17594">
        <ele>297</ele>
        <time>2020-07-03T23:51:51Z</time>
      </trkpt>
      <trkpt lat="47.80281" lon="7.17604">
        <ele>297</ele>
        <time>2020-07-03T23:51:52Z</time>
      </trkpt>
      <trkpt lat="47.80278" lon="7.17613">
        <ele>297</ele>
        <time>2020-07-03T23:51:54Z</time>
      </trkpt>
      <trkpt lat="47.80254" lon="7.17612">
        <ele>298</ele>
        <time>2020-07-03T23:51:59Z</time>
      </trkpt>
      <trkpt lat="47.80215" lon="7.17598">
        <ele>298</ele>
        <time>2020-07-03T23:52:09Z</time>
      </trkpt>
      <trkpt lat="47.80209" lon="7.17603">
        <ele>298</ele>
        <time>2020-07-03T23:52:10Z</time>
      </trkpt>
      <trkpt lat="47.80206" lon="7.1761">
        <ele>298</ele>
        <time>2020-07-03T23:52:12Z</time>
      </trkpt>
      <trkpt lat="47.80159" lon="7.17841">
        <ele>296</ele>
        <time>2020-07-03T23:52:50Z</time>
      </trkpt>
      <trkpt lat="47.80161" lon="7.1785">
        <ele>296</ele>
        <time>2020-07-03T23:52:51Z</time>
      </trkpt>
      <trkpt lat="47.80131" lon="7.17872">
        <ele>296</ele>
        <time>2020-07-03T23:52:59Z</time>
      </trkpt>
      <trkpt lat="47.80133" lon="7.17879">
        <ele>296</ele>
        <time>2020-07-03T23:53:00Z</time>
      </trkpt>
      <trkpt lat="47.80132" lon="7.18122">
        <ele>294</ele>
        <time>2020-07-03T23:53:38Z</time>
      </trkpt>
      <trkpt lat="47.80136" lon="7.1814">
        <ele>294</ele>
        <time>2020-07-03T23:53:41Z</time>
      </trkpt>
      <trkpt lat="47.79891" lon="7.18427">
        <ele>293</ele>
        <time>2020-07-03T23:54:54Z</time>
      </trkpt>
      <trkpt lat="47.79836" lon="7.18495">
        <ele>291</ele>
        <time>2020-07-03T23:55:11Z</time>
      </trkpt>
      <trkpt lat="47.79775" lon="7.18574">
        <ele>291</ele>
        <time>2020-07-03T23:55:30Z</time>
      </trkpt>
      <trkpt lat="47.79731" lon="7.18615">
        <ele>290</ele>
        <time>2020-07-03T23:55:42Z</time>
      </trkpt>
      <trkpt lat="47.79585" lon="7.18782">
        <ele>290</ele>
        <time>2020-07-03T23:56:25Z</time>
      </trkpt>
      <trkpt lat="47.79409" lon="7.18976">
        <ele>287</ele>
        <time>2020-07-03T23:57:16Z</time>
      </trkpt>
      <trkpt lat="47.79378" lon="7.19008">
        <ele>286</ele>
        <time>2020-07-03T23:57:25Z</time>
      </trkpt>
      <trkpt lat="47.79351" lon="7.1903">
        <ele>284</ele>
        <time>2020-07-03T23:57:32Z</time>
      </trkpt>
      <trkpt lat="47.79076" lon="7.19225">
        <ele>284</ele>
        <time>2020-07-03T23:58:43Z</time>
      </trkpt>
      <trkpt lat="47.7905" lon="7.19241">
        <ele>284</ele>
        <time>2020-07-03T23:58:50Z</time>
      </trkpt>
      <trkpt lat="47.78843" lon="7.19354">
        <ele>284</ele>
        <time>2020-07-03T23:59:41Z</time>
      </trkpt>
      <trkpt lat="47.7884" lon="7.19348">
        <ele>283</ele>
        <time>2020-07-03T23:59:42Z</time>
      </trkpt>
      <trkpt lat="47.78833" lon="7.19342">
        <ele>283</ele>
        <time>2020-07-03T23:59:44Z</time>
      </trkpt>
      <trkpt lat="47.78824" lon="7.19343">
        <ele>283</ele>
        <time>2020-07-03T23:59:46Z</time>
      </trkpt>
      <trkpt lat="47.78818" lon="7.19351">
        <ele>284</ele>
        <time>2020-07-03T23:59:48Z</time>
      </trkpt>
      <trkpt lat="47.78815" lon="7.19363">
        <ele>284</ele>
        <time>2020-07-03T23:59:50Z</time>
      </trkpt>
      <trkpt lat="47.78816" lon="7.19369">
        <ele>284</ele>
        <time>2020-07-03T23:59:51Z</time>
      </trkpt>
      <trkpt lat="47.78764" lon="7.19399">
        <ele>287</ele>
        <time>2020-07-04T00:00:04Z</time>
      </trkpt>
      <trkpt lat="47.78772" lon="7.19429">
        <ele>287</ele>
        <time>2020-07-04T00:00:09Z</time>
      </trkpt>
      <trkpt lat="47.78772" lon="7.19457">
        <ele>287</ele>
        <time>2020-07-04T00:00:14Z</time>
      </trkpt>
      <trkpt lat="47.78762" lon="7.19485">
        <ele>287</ele>
        <time>2020-07-04T00:00:18Z</time>
      </trkpt>
      <trkpt lat="47.78729" lon="7.19563">
        <ele>287</ele>
        <time>2020-07-04T00:00:33Z</time>
      </trkpt>
      <trkpt lat="47.78616" lon="7.19822">
        <ele>286</ele>
        <time>2020-07-04T00:01:21Z</time>
      </trkpt>
      <trkpt lat="47.78451" lon="7.20218">
        <ele>282</ele>
        <time>2020-07-04T00:02:35Z</time>
      </trkpt>
      <trkpt lat="47.78348" lon="7.20481">
        <ele>280</ele>
        <time>2020-07-04T00:03:22Z</time>
      </trkpt>
      <trkpt lat="47.78105" lon="7.21047">
        <ele>279</ele>
        <time>2020-07-04T00:05:08Z</time>
      </trkpt>
      <trkpt lat="47.77912" lon="7.2149">
        <ele>276</ele>
        <time>2020-07-04T00:06:31Z</time>
      </trkpt>
      <trkpt lat="47.77907" lon="7.21493">
        <ele>276</ele>
        <time>2020-07-04T00:06:32Z</time>
      </trkpt>
      <trkpt lat="47.77897" lon="7.21491">
        <ele>276</ele>
        <time>2020-07-04T00:06:34Z</time>
      </trkpt>
      <trkpt lat="47.77889" lon="7.21493">
        <ele>276</ele>
        <time>2020-07-04T00:06:36Z</time>
      </trkpt>
      <trkpt lat="47.77885" lon="7.21505">
        <ele>276</ele>
        <time>2020-07-04T00:06:38Z</time>
      </trkpt>
      <trkpt lat="47.77879" lon="7.21555">
        <ele>277</ele>
        <time>2020-07-04T00:06:46Z</time>
      </trkpt>
      <trkpt lat="47.77891" lon="7.21557">
        <ele>277</ele>
        <time>2020-07-04T00:06:49Z</time>
      </trkpt>
      <trkpt lat="47.77898" lon="7.21556">
        <ele>277</ele>
        <time>2020-07-04T00:06:51Z</time>
      </trkpt>
      <trkpt lat="47.77964" lon="7.21515">
        <ele>275</ele>
        <time>2020-07-04T00:07:07Z</time>
      </trkpt>
      <trkpt lat="47.77983" lon="7.21505">
        <ele>275</ele>
        <time>2020-07-04T00:07:12Z</time>
      </trkpt>
      <trkpt lat="47.77985" lon="7.21514">
        <ele>275</ele>
        <time>2020-07-04T00:07:13Z</time>
      </trkpt>
      <trkpt lat="47.77978" lon="7.21559">
        <ele>276</ele>
        <time>2020-07-04T00:07:21Z</time>
      </trkpt>
      <trkpt lat="47.77898" lon="7.21998">
        <ele>275</ele>
        <time>2020-07-04T00:08:32Z</time>
      </trkpt>
      <trkpt lat="47.77948" lon="7.22011">
        <ele>275</ele>
        <time>2020-07-04T00:08:44Z</time>
      </trkpt>
      <trkpt lat="47.78152" lon="7.2204">
        <ele>274</ele>
        <time>2020-07-04T00:09:32Z</time>
      </trkpt>
      <trkpt lat="47.7814" lon="7.22089">
        <ele>274</ele>
        <time>2020-07-04T00:09:40Z</time>
      </trkpt>
      <trkpt lat="47.7812" lon="7.22204">
        <ele>272</ele>
        <time>2020-07-04T00:09:59Z</time>
      </trkpt>
      <trkpt lat="47.78087" lon="7.22399">
        <ele>268</ele>
        <time>2020-07-04T00:10:30Z</time>
      </trkpt>
      <trkpt lat="47.78086" lon="7.2241">
        <ele>268</ele>
        <time>2020-07-04T00:10:32Z</time>
      </trkpt>
      <trkpt lat="47.78105" lon="7.22404">
        <ele>268</ele>
        <time>2020-07-04T00:10:36Z</time>
      </trkpt>
      <trkpt lat="47.78128" lon="7.22406">
        <ele>268</ele>
        <time>2020-07-04T00:10:42Z</time>
      </trkpt>
      <trkpt lat="47.78119" lon="7.22421">
        <ele>268</ele>
        <time>2020-07-04T00:10:45Z</time>
      </trkpt>
      <trkpt lat="47.78126" lon="7.22422">
        <ele>268</ele>
        <time>2020-07-04T00:10:47Z</time>
      </trkpt>
      <trkpt lat="47.78142" lon="7.22435">
        <ele>267</ele>
        <time>2020-07-04T00:10:51Z</time>
      </trkpt>
      <trkpt lat="47.78139" lon="7.22446">
        <ele>268</ele>
        <time>2020-07-04T00:10:53Z</time>
      </trkpt>
      <trkpt lat="47.78141" lon="7.22465">
        <ele>268</ele>
        <time>2020-07-04T00:10:56Z</time>
      </trkpt>
      <trkpt lat="47.78169" lon="7.22541">
        <ele>268</ele>
        <time>2020-07-04T00:11:09Z</time>
      </trkpt>
      <trkpt lat="47.7817" lon="7.22551">
        <ele>268</ele>
        <time>2020-07-04T00:11:11Z</time>
      </trkpt>
      <trkpt lat="47.7818" lon="7.22555">
        <ele>268</ele>
        <time>2020-07-04T00:11:13Z</time>
      </trkpt>
      <trkpt lat="47.78229" lon="7.226">
        <ele>270</ele>
        <time>2020-07-04T00:11:27Z</time>
      </trkpt>
      <trkpt lat="47.78237" lon="7.22613">
        <ele>270</ele>
        <time>2020-07-04T00:11:30Z</time>
      </trkpt>
      <trkpt lat="47.78242" lon="7.22627">
        <ele>270</ele>
        <time>2020-07-04T00:11:32Z</time>
      </trkpt>
      <trkpt lat="47.78245" lon="7.22641">
        <ele>270</ele>
        <time>2020-07-04T00:11:34Z</time>
      </trkpt>
      <trkpt lat="47.78246" lon="7.22655">
        <ele>270</ele>
        <time>2020-07-04T00:11:37Z</time>
      </trkpt>
      <trkpt lat="47.7822" lon="7.22918">
        <ele>267</ele>
        <time>2020-07-04T00:12:18Z</time>
      </trkpt>
      <trkpt lat="47.78213" lon="7.22916">
        <ele>267</ele>
        <time>2020-07-04T00:12:20Z</time>
      </trkpt>
      <trkpt lat="47.78212" lon="7.22924">
        <ele>267</ele>
        <time>2020-07-04T00:12:21Z</time>
      </trkpt>
      <trkpt lat="47.78147" lon="7.23077">
        <ele>268</ele>
        <time>2020-07-04T00:12:50Z</time>
      </trkpt>
      <trkpt lat="47.78025" lon="7.23354">
        <ele>266</ele>
        <time>2020-07-04T00:13:42Z</time>
      </trkpt>
      <trkpt lat="47.78022" lon="7.23361">
        <ele>266</ele>
        <time>2020-07-04T00:13:43Z</time>
      </trkpt>
      <trkpt lat="47.78018" lon="7.23363">
        <ele>266</ele>
        <time>2020-07-04T00:13:44Z</time>
      </trkpt>
      <trkpt lat="47.78028" lon="7.23374">
        <ele>265</ele>
        <time>2020-07-04T00:13:47Z</time>
      </trkpt>
      <trkpt lat="47.78021" lon="7.23396">
        <ele>265</ele>
        <time>2020-07-04T00:13:51Z</time>
      </trkpt>
      <trkpt lat="47.78022" lon="7.23407">
        <ele>264</ele>
        <time>2020-07-04T00:13:52Z</time>
      </trkpt>
      <trkpt lat="47.7802" lon="7.23415">
        <ele>264</ele>
        <time>2020-07-04T00:13:54Z</time>
      </trkpt>
      <trkpt lat="47.77892" lon="7.23715">
        <ele>265</ele>
        <time>2020-07-04T00:14:50Z</time>
      </trkpt>
      <trkpt lat="47.77874" lon="7.23765">
        <ele>264</ele>
        <time>2020-07-04T00:14:58Z</time>
      </trkpt>
      <trkpt lat="47.77862" lon="7.23814">
        <ele>262</ele>
        <time>2020-07-04T00:15:07Z</time>
      </trkpt>
      <trkpt lat="47.77855" lon="7.23854">
        <ele>261</ele>
        <time>2020-07-04T00:15:13Z</time>
      </trkpt>
      <trkpt lat="47.77852" lon="7.23919">
        <ele>260</ele>
        <time>2020-07-04T00:15:23Z</time>
      </trkpt>
      <trkpt lat="47.77857" lon="7.23976">
        <ele>260</ele>
        <time>2020-07-04T00:15:32Z</time>
      </trkpt>
      <trkpt lat="47.7786" lon="7.23997">
        <ele>260</ele>
        <time>2020-07-04T00:15:36Z</time>
      </trkpt>
      <trkpt lat="47.77892" lon="7.24097">
        <ele>259</ele>
        <time>2020-07-04T00:15:53Z</time>
      </trkpt>
      <trkpt lat="47.77912" lon="7.24152">
        <ele>259</ele>
        <time>2020-07-04T00:16:03Z</time>
      </trkpt>
      <trkpt lat="47.77935" lon="7.24203">
        <ele>259</ele>
        <time>2020-07-04T00:16:13Z</time>
      </trkpt>
      <trkpt lat="47.77936" lon="7.24212">
        <ele>259</ele>
        <time>2020-07-04T00:16:14Z</time>
      </trkpt>
      <trkpt lat="47.77935" lon="7.24221">
        <ele>259</ele>
        <time>2020-07-04T00:16:15Z</time>
      </trkpt>
      <trkpt lat="47.77925" lon="7.24246">
        <ele>258</ele>
        <time>2020-07-04T00:16:20Z</time>
      </trkpt>
      <trkpt lat="47.77914" lon="7.24264">
        <ele>258</ele>
        <time>2020-07-04T00:16:24Z</time>
      </trkpt>
      <trkpt lat="47.77893" lon="7.24288">
        <ele>258</ele>
        <time>2020-07-04T00:16:30Z</time>
      </trkpt>
      <trkpt lat="47.77889" lon="7.24294">
        <ele>258</ele>
        <time>2020-07-04T00:16:31Z</time>
      </trkpt>
      <trkpt lat="47.77884" lon="7.24311">
        <ele>258</ele>
        <time>2020-07-04T00:16:34Z</time>
      </trkpt>
      <trkpt lat="47.77882" lon="7.24328">
        <ele>259</ele>
        <time>2020-07-04T00:16:37Z</time>
      </trkpt>
      <trkpt lat="47.77603" lon="7.24318">
        <ele>264</ele>
        <time>2020-07-04T00:17:42Z</time>
      </trkpt>
      <trkpt lat="47.77539" lon="7.2432">
        <ele>263</ele>
        <time>2020-07-04T00:17:57Z</time>
      </trkpt>
      <trkpt lat="47.77466" lon="7.24316">
        <ele>264</ele>
        <time>2020-07-04T00:18:14Z</time>
      </trkpt>
      <trkpt lat="47.77307" lon="7.24315">
        <ele>264</ele>
        <time>2020-07-04T00:18:51Z</time>
      </trkpt>
      <trkpt lat="47.77297" lon="7.24313">
        <ele>263</ele>
        <time>2020-07-04T00:18:54Z</time>
      </trkpt>
      <trkpt lat="47.7728" lon="7.24342">
        <ele>263</ele>
        <time>2020-07-04T00:19:00Z</time>
      </trkpt>
      <trkpt lat="47.77236" lon="7.24442">
        <ele>263</ele>
        <time>2020-07-04T00:19:18Z</time>
      </trkpt>
      <trkpt lat="47.77165" lon="7.24597">
        <ele>259</ele>
        <time>2020-07-04T00:19:48Z</time>
      </trkpt>
      <trkpt lat="47.77032" lon="7.249">
        <ele>260</ele>
        <time>2020-07-04T00:20:45Z</time>
      </trkpt>
      <trkpt lat="47.77026" lon="7.24919">
        <ele>260</ele>
        <time>2020-07-04T00:20:48Z</time>
      </trkpt>
      <trkpt lat="47.77024" lon="7.24933">
        <ele>260</ele>
        <time>2020-07-04T00:20:50Z</time>
      </trkpt>
      <trkpt lat="47.77009" lon="7.24956">
        <ele>259</ele>
        <time>2020-07-04T00:20:55Z</time>
      </trkpt>
      <trkpt lat="47.76774" lon="7.25494">
        <ele>256</ele>
        <time>2020-07-04T00:22:36Z</time>
      </trkpt>
      <trkpt lat="47.76763" lon="7.25522">
        <ele>255</ele>
        <time>2020-07-04T00:22:41Z</time>
      </trkpt>
      <trkpt lat="47.76695" lon="7.25674">
        <ele>254</ele>
        <time>2020-07-04T00:23:10Z</time>
      </trkpt>
      <trkpt lat="47.76631" lon="7.25827">
        <ele>255</ele>
        <time>2020-07-04T00:23:38Z</time>
      </trkpt>
      <trkpt lat="47.76616" lon="7.25872">
        <ele>256</ele>
        <time>2020-07-04T00:23:46Z</time>
      </trkpt>
      <trkpt lat="47.76609" lon="7.25875">
        <ele>256</ele>
        <time>2020-07-04T00:23:48Z</time>
      </trkpt>
      <trkpt lat="47.76585" lon="7.25865">
        <ele>255</ele>
        <time>2020-07-04T00:23:53Z</time>
      </trkpt>
      <trkpt lat="47.76547" lon="7.25866">
        <ele>255</ele>
        <time>2020-07-04T00:24:02Z</time>
      </trkpt>
      <trkpt lat="47.76534" lon="7.25863">
        <ele>255</ele>
        <time>2020-07-04T00:24:05Z</time>
      </trkpt>
      <trkpt lat="47.76502" lon="7.25844">
        <ele>254</ele>
        <time>2020-07-04T00:24:13Z</time>
      </trkpt>
      <trkpt lat="47.76489" lon="7.25839">
        <ele>254</ele>
        <time>2020-07-04T00:24:16Z</time>
      </trkpt>
      <trkpt lat="47.76475" lon="7.25837">
        <ele>254</ele>
        <time>2020-07-04T00:24:20Z</time>
      </trkpt>
      <trkpt lat="47.76436" lon="7.2595">
        <ele>256</ele>
        <time>2020-07-04T00:24:40Z</time>
      </trkpt>
      <trkpt lat="47.76422" lon="7.25956">
        <ele>256</ele>
        <time>2020-07-04T00:24:43Z</time>
      </trkpt>
      <trkpt lat="47.76414" lon="7.25969">
        <ele>255</ele>
        <time>2020-07-04T00:24:46Z</time>
      </trkpt>
      <trkpt lat="47.76351" lon="7.26233">
        <ele>253</ele>
        <time>2020-07-04T00:25:30Z</time>
      </trkpt>
      <trkpt lat="47.76315" lon="7.26382">
        <ele>252</ele>
        <time>2020-07-04T00:25:55Z</time>
      </trkpt>
      <trkpt lat="47.76292" lon="7.26454">
        <ele>251</ele>
        <time>2020-07-04T00:26:07Z</time>
      </trkpt>
      <trkpt lat="47.76257" lon="7.26542">
        <ele>253</ele>
        <time>2020-07-04T00:26:23Z</time>
      </trkpt>
      <trkpt lat="47.76228" lon="7.26604">
        <ele>252</ele>
        <time>2020-07-04T00:26:35Z</time>
      </trkpt>
      <trkpt lat="47.7621" lon="7.26648">
        <ele>251</ele>
        <time>2020-07-04T00:26:43Z</time>
      </trkpt>
      <trkpt lat="47.76179" lon="7.26694">
        <ele>250</ele>
        <time>2020-07-04T00:26:53Z</time>
      </trkpt>
      <trkpt lat="47.76082" lon="7.26826">
        <ele>249</ele>
        <time>2020-07-04T00:27:24Z</time>
      </trkpt>
      <trkpt lat="47.76081" lon="7.26837">
        <ele>249</ele>
        <time>2020-07-04T00:27:26Z</time>
      </trkpt>
      <trkpt lat="47.76039" lon="7.26899">
        <ele>250</ele>
        <time>2020-07-04T00:27:40Z</time>
      </trkpt>
      <trkpt lat="47.76032" lon="7.26915">
        <ele>250</ele>
        <time>2020-07-04T00:27:43Z</time>
      </trkpt>
      <trkpt lat="47.76028" lon="7.26926">
        <ele>250</ele>
        <time>2020-07-04T00:27:45Z</time>
      </trkpt>
      <trkpt lat="47.76012" lon="7.26972">
        <ele>252</ele>
        <time>2020-07-04T00:27:53Z</time>
      </trkpt>
      <trkpt lat="47.76008" lon="7.26992">
        <ele>252</ele>
        <time>2020-07-04T00:27:56Z</time>
      </trkpt>
      <trkpt lat="47.76007" lon="7.271">
        <ele>251</ele>
        <time>2020-07-04T00:28:13Z</time>
      </trkpt>
      <trkpt lat="47.76009" lon="7.27183">
        <ele>250</ele>
        <time>2020-07-04T00:28:26Z</time>
      </trkpt>
      <trkpt lat="47.76009" lon="7.27203">
        <ele>250</ele>
        <time>2020-07-04T00:28:29Z</time>
      </trkpt>
      <trkpt lat="47.76011" lon="7.27266">
        <ele>251</ele>
        <time>2020-07-04T00:28:39Z</time>
      </trkpt>
      <trkpt lat="47.76011" lon="7.27281">
        <ele>251</ele>
        <time>2020-07-04T00:28:41Z</time>
      </trkpt>
      <trkpt lat="47.7601" lon="7.27347">
        <ele>251</ele>
        <time>2020-07-04T00:28:52Z</time>
      </trkpt>
      <trkpt lat="47.76003" lon="7.27385">
        <ele>252</ele>
        <time>2020-07-04T00:28:58Z</time>
      </trkpt>
      <trkpt lat="47.75984" lon="7.27467">
        <ele>254</ele>
        <time>2020-07-04T00:29:12Z</time>
      </trkpt>
      <trkpt lat="47.75946" lon="7.27629">
        <ele>253</ele>
        <time>2020-07-04T00:29:39Z</time>
      </trkpt>
      <trkpt lat="47.75921" lon="7.27735">
        <ele>250</ele>
        <time>2020-07-04T00:29:56Z</time>
      </trkpt>
      <trkpt lat="47.75916" lon="7.27766">
        <ele>250</ele>
        <time>2020-07-04T00:30:01Z</time>
      </trkpt>
      <trkpt lat="47.75913" lon="7.27804">
        <ele>251</ele>
        <time>2020-07-04T00:30:07Z</time>
      </trkpt>
      <trkpt lat="47.75913" lon="7.27813">
        <ele>251</ele>
        <time>2020-07-04T00:30:09Z</time>
      </trkpt>
      <trkpt lat="47.75913" lon="7.27822">
        <ele>251</ele>
        <time>2020-07-04T00:30:10Z</time>
      </trkpt>
      <trkpt lat="47.75912" lon="7.27839">
        <ele>251</ele>
        <time>2020-07-04T00:30:13Z</time>
      </trkpt>
      <trkpt lat="47.75918" lon="7.27875">
        <ele>251</ele>
        <time>2020-07-04T00:30:19Z</time>
      </trkpt>
      <trkpt lat="47.75923" lon="7.27895">
        <ele>251</ele>
        <time>2020-07-04T00:30:22Z</time>
      </trkpt>
      <trkpt lat="47.75934" lon="7.27924">
        <ele>251</ele>
        <time>2020-07-04T00:30:27Z</time>
      </trkpt>
      <trkpt lat="47.7594" lon="7.27927">
        <ele>251</ele>
        <time>2020-07-04T00:30:29Z</time>
      </trkpt>
      <trkpt lat="47.75942" lon="7.27935">
        <ele>251</ele>
        <time>2020-07-04T00:30:30Z</time>
      </trkpt>
      <trkpt lat="47.75934" lon="7.27942">
        <ele>251</ele>
        <time>2020-07-04T00:30:32Z</time>
      </trkpt>
      <trkpt lat="47.7594" lon="7.2796">
        <ele>250</ele>
        <time>2020-07-04T00:30:35Z</time>
      </trkpt>
      <trkpt lat="47.75938" lon="7.27984">
        <ele>250</ele>
        <time>2020-07-04T00:30:39Z</time>
      </trkpt>
      <trkpt lat="47.75934" lon="7.28012">
        <ele>250</ele>
        <time>2020-07-04T00:30:44Z</time>
      </trkpt>
      <trkpt lat="47.75931" lon="7.28023">
        <ele>250</ele>
        <time>2020-07-04T00:30:45Z</time>
      </trkpt>
      <trkpt lat="47.7592" lon="7.28123">
        <ele>250</ele>
        <time>2020-07-04T00:31:01Z</time>
      </trkpt>
      <trkpt lat="47.7587" lon="7.28446">
        <ele>247</ele>
        <time>2020-07-04T00:31:53Z</time>
      </trkpt>
      <trkpt lat="47.7586" lon="7.28519">
        <ele>247</ele>
        <time>2020-07-04T00:32:05Z</time>
      </trkpt>
      <trkpt lat="47.75855" lon="7.28569">
        <ele>246</ele>
        <time>2020-07-04T00:32:13Z</time>
      </trkpt>
      <trkpt lat="47.75858" lon="7.28576">
        <ele>246</ele>
        <time>2020-07-04T00:32:14Z</time>
      </trkpt>
      <trkpt lat="47.75853" lon="7.28646">
        <ele>247</ele>
        <time>2020-07-04T00:32:25Z</time>
      </trkpt>
      <trkpt lat="47.75854" lon="7.28721">
        <ele>247</ele>
        <time>2020-07-04T00:32:37Z</time>
      </trkpt>
      <trkpt lat="47.75864" lon="7.28832">
        <ele>247</ele>
        <time>2020-07-04T00:32:55Z</time>
      </trkpt>
      <trkpt lat="47.75893" lon="7.2903">
        <ele>245</ele>
        <time>2020-07-04T00:33:26Z</time>
      </trkpt>
      <trkpt lat="47.75895" lon="7.29042">
        <ele>245</ele>
        <time>2020-07-04T00:33:28Z</time>
      </trkpt>
      <trkpt lat="47.75892" lon="7.29049">
        <ele>245</ele>
        <time>2020-07-04T00:33:30Z</time>
      </trkpt>
      <trkpt lat="47.75905" lon="7.29081">
        <ele>246</ele>
        <time>2020-07-04T00:33:36Z</time>
      </trkpt>
      <trkpt lat="47.7593" lon="7.29163">
        <ele>246</ele>
        <time>2020-07-04T00:33:50Z</time>
      </trkpt>
      <trkpt lat="47.75944" lon="7.29253">
        <ele>245</ele>
        <time>2020-07-04T00:34:04Z</time>
      </trkpt>
      <trkpt lat="47.75952" lon="7.29347">
        <ele>243</ele>
        <time>2020-07-04T00:34:19Z</time>
      </trkpt>
      <trkpt lat="47.75953" lon="7.29359">
        <ele>243</ele>
        <time>2020-07-04T00:34:21Z</time>
      </trkpt>
      <trkpt lat="47.76015" lon="7.29418">
        <ele>243</ele>
        <time>2020-07-04T00:34:38Z</time>
      </trkpt>
      <trkpt lat="47.7609" lon="7.29494">
        <ele>242</ele>
        <time>2020-07-04T00:34:59Z</time>
      </trkpt>
      <trkpt lat="47.76096" lon="7.29507">
        <ele>242</ele>
        <time>2020-07-04T00:35:02Z</time>
      </trkpt>
      <trkpt lat="47.76095" lon="7.29515">
        <ele>242</ele>
        <time>2020-07-04T00:35:03Z</time>
      </trkpt>
      <trkpt lat="47.76096" lon="7.29525">
        <ele>242</ele>
        <time>2020-07-04T00:35:05Z</time>
      </trkpt>
      <trkpt lat="47.761" lon="7.29533">
        <ele>242</ele>
        <time>2020-07-04T00:35:06Z</time>
      </trkpt>
      <trkpt lat="47.76103" lon="7.29559">
        <ele>242</ele>
        <time>2020-07-04T00:35:10Z</time>
      </trkpt>
      <trkpt lat="47.76102" lon="7.2957">
        <ele>242</ele>
        <time>2020-07-04T00:35:12Z</time>
      </trkpt>
      <trkpt lat="47.76103" lon="7.29578">
        <ele>242</ele>
        <time>2020-07-04T00:35:13Z</time>
      </trkpt>
      <trkpt lat="47.76106" lon="7.29586">
        <ele>242</ele>
        <time>2020-07-04T00:35:15Z</time>
      </trkpt>
      <trkpt lat="47.76131" lon="7.29612">
        <ele>241</ele>
        <time>2020-07-04T00:35:22Z</time>
      </trkpt>
      <trkpt lat="47.76136" lon="7.29624">
        <ele>241</ele>
        <time>2020-07-04T00:35:24Z</time>
      </trkpt>
      <trkpt lat="47.76147" lon="7.29715">
        <ele>241</ele>
        <time>2020-07-04T00:35:39Z</time>
      </trkpt>
      <trkpt lat="47.76159" lon="7.29714">
        <ele>241</ele>
        <time>2020-07-04T00:35:42Z</time>
      </trkpt>
      <trkpt lat="47.76179" lon="7.29733">
        <ele>241</ele>
        <time>2020-07-04T00:35:47Z</time>
      </trkpt>
      <trkpt lat="47.76188" lon="7.29712">
        <ele>241</ele>
        <time>2020-07-04T00:35:51Z</time>
      </trkpt>
    </trkseg>
  </trk>
</gpx>